<?xml version="1.0" encoding="UTF-8" standalone="no" ?><gpx xmlns="http://www.topografix.com/GPX/1/1" xmlns:gpxx="http://www.garmin.com/xmlschemas/GpxExtensions/v3" xmlns:wptx1="http://www.garmin.com/xmlschemas/WaypointExtension/v1" xmlns:gpxtpx="http://www.garmin.com/xmlschemas/TrackPointExtension/v1" creator="Dakota 20" version="1.1" xmlns:xsi="http://www.w3.org/2001/XMLSchema-instance" xsi:schemaLocation="http://www.topografix.com/GPX/1/1 http://www.topografix.com/GPX/1/1/gpx.xsd http://www.garmin.com/xmlschemas/GpxExtensions/v3 http://www8.garmin.com/xmlschemas/GpxExtensionsv3.xsd http://www.garmin.com/xmlschemas/WaypointExtension/v1 http://www8.garmin.com/xmlschemas/WaypointExtensionv1.xsd http://www.garmin.com/xmlschemas/TrackPointExtension/v1 http://www.garmin.com/xmlschemas/TrackPointExtensionv1.xsd"><metadata><link href="http://www.garmin.com"><text>Garmin International</text></link><time>2013-09-19T18:18:25Z</time></metadata><trk><name>Current Track: 18 SEP 2013 09:52</name><extensions><gpxx:TrackExtension><gpxx:DisplayColor>Cyan</gpxx:DisplayColor></gpxx:TrackExtension></extensions><trkseg><trkpt lat="51.7296979576" lon="-2.2736777365"><ele>24.17</ele><time>2013-09-18T08:52:29Z</time></trkpt><trkpt lat="51.7297041602" lon="-2.2736877110"><ele>24.17</ele><time>2013-09-18T08:53:03Z</time></trkpt><trkpt lat="51.7297179904" lon="-2.2736913990"><ele>24.65</ele><time>2013-09-18T08:53:30Z</time></trkpt><trkpt lat="51.7297390290" lon="-2.2736556921"><ele>25.13</ele><time>2013-09-18T08:53:41Z</time></trkpt><trkpt lat="51.7299040686" lon="-2.2736677621"><ele>24.65</ele><time>2013-09-18T08:53:56Z</time></trkpt><trkpt lat="51.7299853731" lon="-2.2737619746"><ele>24.65</ele><time>2013-09-18T08:54:07Z</time></trkpt><trkpt lat="51.7302618921" lon="-2.2739545070"><ele>24.65</ele><time>2013-09-18T08:54:28Z</time></trkpt><trkpt lat="51.7304909695" lon="-2.2740607057"><ele>23.69</ele><time>2013-09-18T08:54:50Z</time></trkpt><trkpt lat="51.7306912132" lon="-2.2740506474"><ele>23.69</ele><time>2013-09-18T08:55:13Z</time></trkpt><trkpt lat="51.7307731882" lon="-2.2740616277"><ele>23.21</ele><time>2013-09-18T08:55:27Z</time></trkpt><trkpt lat="51.7309251521" lon="-2.2741473746"><ele>23.69</ele><time>2013-09-18T08:55:46Z</time></trkpt><trkpt lat="51.7311451770" lon="-2.2740966640"><ele>22.73</ele><time>2013-09-18T08:56:06Z</time></trkpt><trkpt lat="51.7311524693" lon="-2.2740575206"><ele>22.73</ele><time>2013-09-18T08:56:09Z</time></trkpt><trkpt lat="51.7311321851" lon="-2.2736710310"><ele>23.69</ele><time>2013-09-18T08:56:32Z</time></trkpt><trkpt lat="51.7311731726" lon="-2.2734260280"><ele>23.69</ele><time>2013-09-18T08:56:52Z</time></trkpt><trkpt lat="51.7311597615" lon="-2.2730958648"><ele>23.69</ele><time>2013-09-18T08:57:14Z</time></trkpt><trkpt lat="51.7311898526" lon="-2.2729443200"><ele>23.21</ele><time>2013-09-18T08:57:34Z</time></trkpt><trkpt lat="51.7313185986" lon="-2.2726325132"><ele>22.25</ele><time>2013-09-18T08:57:58Z</time></trkpt><trkpt lat="51.7313682195" lon="-2.2722836584"><ele>20.32</ele><time>2013-09-18T08:58:19Z</time></trkpt><trkpt lat="51.7313895095" lon="-2.2720233165"><ele>17.44</ele><time>2013-09-18T08:58:43Z</time></trkpt><trkpt lat="51.7314140685" lon="-2.2719275951"><ele>15.52</ele><time>2013-09-18T08:59:06Z</time></trkpt><trkpt lat="51.7313993163" lon="-2.2719135974"><ele>16.00</ele><time>2013-09-18T08:59:29Z</time></trkpt><trkpt lat="51.7314727418" lon="-2.2718103323"><ele>16.00</ele><time>2013-09-18T08:59:43Z</time></trkpt><trkpt lat="51.7315509450" lon="-2.2718096618"><ele>16.00</ele><time>2013-09-18T09:00:09Z</time></trkpt><trkpt lat="51.7316444032" lon="-2.2716469690"><ele>16.48</ele><time>2013-09-18T09:00:32Z</time></trkpt><trkpt lat="51.7317945231" lon="-2.2715288680"><ele>19.36</ele><time>2013-09-18T09:00:50Z</time></trkpt><trkpt lat="51.7318236083" lon="-2.2712719627"><ele>19.36</ele><time>2013-09-18T09:01:13Z</time></trkpt><trkpt lat="51.7321144603" lon="-2.2711528558"><ele>19.36</ele><time>2013-09-18T09:01:30Z</time></trkpt><trkpt lat="51.7322141211" lon="-2.2712305561"><ele>19.36</ele><time>2013-09-18T09:01:47Z</time></trkpt><trkpt lat="51.7323889676" lon="-2.2712717112"><ele>19.36</ele><time>2013-09-18T09:02:11Z</time></trkpt><trkpt lat="51.7324306257" lon="-2.2712759022"><ele>18.88</ele><time>2013-09-18T09:02:15Z</time></trkpt><trkpt lat="51.7326245829" lon="-2.2714105155"><ele>19.36</ele><time>2013-09-18T09:02:37Z</time></trkpt><trkpt lat="51.7327975016" lon="-2.2714349069"><ele>19.36</ele><time>2013-09-18T09:02:56Z</time></trkpt><trkpt lat="51.7330396548" lon="-2.2715993598"><ele>18.88</ele><time>2013-09-18T09:03:19Z</time></trkpt><trkpt lat="51.7332068738" lon="-2.2717882879"><ele>17.92</ele><time>2013-09-18T09:03:42Z</time></trkpt><trkpt lat="51.7333888449" lon="-2.2718889546"><ele>17.44</ele><time>2013-09-18T09:04:08Z</time></trkpt><trkpt lat="51.7335491069" lon="-2.2719871067"><ele>17.92</ele><time>2013-09-18T09:04:28Z</time></trkpt><trkpt lat="51.7337977979" lon="-2.2720739432"><ele>17.92</ele><time>2013-09-18T09:04:47Z</time></trkpt><trkpt lat="51.7338419706" lon="-2.2720412537"><ele>17.92</ele><time>2013-09-18T09:05:09Z</time></trkpt><trkpt lat="51.7339329142" lon="-2.2720985021"><ele>18.88</ele><time>2013-09-18T09:05:23Z</time></trkpt><trkpt lat="51.7340412922" lon="-2.2721494641"><ele>18.88</ele><time>2013-09-18T09:05:38Z</time></trkpt><trkpt lat="51.7342054099" lon="-2.2722161841"><ele>18.88</ele><time>2013-09-18T09:05:55Z</time></trkpt><trkpt lat="51.7343140393" lon="-2.2722246498"><ele>18.40</ele><time>2013-09-18T09:06:13Z</time></trkpt><trkpt lat="51.7344914004" lon="-2.2723725066"><ele>17.92</ele><time>2013-09-18T09:06:34Z</time></trkpt><trkpt lat="51.7345361598" lon="-2.2723154258"><ele>17.92</ele><time>2013-09-18T09:06:52Z</time></trkpt><trkpt lat="51.7345576175" lon="-2.2722870950"><ele>18.40</ele><time>2013-09-18T09:07:18Z</time></trkpt><trkpt lat="51.7347074859" lon="-2.2724376339"><ele>17.92</ele><time>2013-09-18T09:07:36Z</time></trkpt><trkpt lat="51.7347505689" lon="-2.2723987419"><ele>17.92</ele><time>2013-09-18T09:07:56Z</time></trkpt><trkpt lat="51.7348184623" lon="-2.2724017594"><ele>16.96</ele><time>2013-09-18T09:08:14Z</time></trkpt><trkpt lat="51.7348882835" lon="-2.2724811360"><ele>17.44</ele><time>2013-09-18T09:08:21Z</time></trkpt><trkpt lat="51.7350243218" lon="-2.2726173420"><ele>17.44</ele><time>2013-09-18T09:08:41Z</time></trkpt><trkpt lat="51.7351406626" lon="-2.2727629356"><ele>16.96</ele><time>2013-09-18T09:09:05Z</time></trkpt><trkpt lat="51.7352553271" lon="-2.2727926914"><ele>16.48</ele><time>2013-09-18T09:09:19Z</time></trkpt><trkpt lat="51.7354695685" lon="-2.2728391271"><ele>15.52</ele><time>2013-09-18T09:09:41Z</time></trkpt><trkpt lat="51.7356359493" lon="-2.2729752492"><ele>14.08</ele><time>2013-09-18T09:09:57Z</time></trkpt><trkpt lat="51.7356948741" lon="-2.2728723194"><ele>14.56</ele><time>2013-09-18T09:10:15Z</time></trkpt><trkpt lat="51.7357051000" lon="-2.2728683800"><ele>13.60</ele><time>2013-09-18T09:10:38Z</time></trkpt><trkpt lat="51.7359286454" lon="-2.2730687913"><ele>11.67</ele><time>2013-09-18T09:10:56Z</time></trkpt><trkpt lat="51.7360544577" lon="-2.2731647640"><ele>10.71</ele><time>2013-09-18T09:11:14Z</time></trkpt><trkpt lat="51.7361216806" lon="-2.2731697932"><ele>10.23</ele><time>2013-09-18T09:11:35Z</time></trkpt><trkpt lat="51.7362553719" lon="-2.2733646724"><ele>10.23</ele><time>2013-09-18T09:11:58Z</time></trkpt><trkpt lat="51.7362571321" lon="-2.2733805142"><ele>10.23</ele><time>2013-09-18T09:12:17Z</time></trkpt><trkpt lat="51.7362775840" lon="-2.2733779158"><ele>10.71</ele><time>2013-09-18T09:12:39Z</time></trkpt><trkpt lat="51.7362882290" lon="-2.2733691987"><ele>10.23</ele><time>2013-09-18T09:12:40Z</time></trkpt><trkpt lat="51.7365189828" lon="-2.2732211743"><ele>10.23</ele><time>2013-09-18T09:13:01Z</time></trkpt><trkpt lat="51.7365673464" lon="-2.2731886525"><ele>8.79</ele><time>2013-09-18T09:13:10Z</time></trkpt><trkpt lat="51.7365975212" lon="-2.2731951065"><ele>8.79</ele><time>2013-09-18T09:13:13Z</time></trkpt><trkpt lat="51.7368318792" lon="-2.2731185798"><ele>8.79</ele><time>2013-09-18T09:13:35Z</time></trkpt><trkpt lat="51.7370223999" lon="-2.2730661090"><ele>7.83</ele><time>2013-09-18T09:13:55Z</time></trkpt><trkpt lat="51.7372484598" lon="-2.2728952859"><ele>7.83</ele><time>2013-09-18T09:14:18Z</time></trkpt><trkpt lat="51.7374000885" lon="-2.2727857344"><ele>8.79</ele><time>2013-09-18T09:14:40Z</time></trkpt><trkpt lat="51.7374733463" lon="-2.2726390511"><ele>7.83</ele><time>2013-09-18T09:14:56Z</time></trkpt><trkpt lat="51.7376642022" lon="-2.2723418288"><ele>7.83</ele><time>2013-09-18T09:15:19Z</time></trkpt><trkpt lat="51.7379292380" lon="-2.2721936367"><ele>7.35</ele><time>2013-09-18T09:15:40Z</time></trkpt><trkpt lat="51.7380827945" lon="-2.2720809840"><ele>8.31</ele><time>2013-09-18T09:16:00Z</time></trkpt><trkpt lat="51.7383019812" lon="-2.2720075585"><ele>9.75</ele><time>2013-09-18T09:16:19Z</time></trkpt><trkpt lat="51.7384664342" lon="-2.2718826681"><ele>10.71</ele><time>2013-09-18T09:16:43Z</time></trkpt><trkpt lat="51.7385621555" lon="-2.2717727814"><ele>10.23</ele><time>2013-09-18T09:17:04Z</time></trkpt><trkpt lat="51.7386432923" lon="-2.2717484739"><ele>10.23</ele><time>2013-09-18T09:17:21Z</time></trkpt><trkpt lat="51.7386929132" lon="-2.2717745416"><ele>9.75</ele><time>2013-09-18T09:17:27Z</time></trkpt><trkpt lat="51.7388925701" lon="-2.2715818416"><ele>8.31</ele><time>2013-09-18T09:17:48Z</time></trkpt><trkpt lat="51.7389329709" lon="-2.2713667620"><ele>8.31</ele><time>2013-09-18T09:18:04Z</time></trkpt><trkpt lat="51.7389613017" lon="-2.2713456396"><ele>8.79</ele><time>2013-09-18T09:18:24Z</time></trkpt><trkpt lat="51.7390961666" lon="-2.2716426942"><ele>8.79</ele><time>2013-09-18T09:18:45Z</time></trkpt><trkpt lat="51.7390774749" lon="-2.2716597095"><ele>9.27</ele><time>2013-09-18T09:19:06Z</time></trkpt><trkpt lat="51.7391062248" lon="-2.2716200631"><ele>8.31</ele><time>2013-09-18T09:19:28Z</time></trkpt><trkpt lat="51.7391380761" lon="-2.2715818416"><ele>9.75</ele><time>2013-09-18T09:19:34Z</time></trkpt><trkpt lat="51.7391341366" lon="-2.2713543568"><ele>9.27</ele><time>2013-09-18T09:19:50Z</time></trkpt><trkpt lat="51.7392659001" lon="-2.2714503296"><ele>8.79</ele><time>2013-09-18T09:20:08Z</time></trkpt><trkpt lat="51.7393677402" lon="-2.2716831788"><ele>9.27</ele><time>2013-09-18T09:20:23Z</time></trkpt><trkpt lat="51.7394116614" lon="-2.2718654852"><ele>10.23</ele><time>2013-09-18T09:20:39Z</time></trkpt><trkpt lat="51.7394595221" lon="-2.2718611266"><ele>11.19</ele><time>2013-09-18T09:20:43Z</time></trkpt><trkpt lat="51.7396926228" lon="-2.2718110867"><ele>13.60</ele><time>2013-09-18T09:21:04Z</time></trkpt><trkpt lat="51.7398338579" lon="-2.2717935685"><ele>13.60</ele><time>2013-09-18T09:21:25Z</time></trkpt><trkpt lat="51.7398621049" lon="-2.2717246693"><ele>14.56</ele><time>2013-09-18T09:21:45Z</time></trkpt><trkpt lat="51.7400439084" lon="-2.2717038821"><ele>15.04</ele><time>2013-09-18T09:22:01Z</time></trkpt><trkpt lat="51.7400357779" lon="-2.2716164589"><ele>15.52</ele><time>2013-09-18T09:22:20Z</time></trkpt><trkpt lat="51.7399616819" lon="-2.2715838533"><ele>15.04</ele><time>2013-09-18T09:22:36Z</time></trkpt><trkpt lat="51.7398974765" lon="-2.2715069074"><ele>14.08</ele><time>2013-09-18T09:22:41Z</time></trkpt><trkpt lat="51.7398416530" lon="-2.2712286282"><ele>11.67</ele><time>2013-09-18T09:23:00Z</time></trkpt><trkpt lat="51.7398393899" lon="-2.2711994592"><ele>11.67</ele><time>2013-09-18T09:23:17Z</time></trkpt><trkpt lat="51.7398182675" lon="-2.2710202541"><ele>12.15</ele><time>2013-09-18T09:23:37Z</time></trkpt><trkpt lat="51.7397848237" lon="-2.2708091140"><ele>12.63</ele><time>2013-09-18T09:23:59Z</time></trkpt><trkpt lat="51.7397853266" lon="-2.2705001570"><ele>11.67</ele><time>2013-09-18T09:24:21Z</time></trkpt><trkpt lat="51.7398061976" lon="-2.2701919544"><ele>12.15</ele><time>2013-09-18T09:24:39Z</time></trkpt><trkpt lat="51.7397973128" lon="-2.2700618673"><ele>12.63</ele><time>2013-09-18T09:25:01Z</time></trkpt><trkpt lat="51.7398219556" lon="-2.2700725961"><ele>12.15</ele><time>2013-09-18T09:25:24Z</time></trkpt><trkpt lat="51.7397776991" lon="-2.2697559278"><ele>12.63</ele><time>2013-09-18T09:25:45Z</time></trkpt><trkpt lat="51.7397439200" lon="-2.2696944047"><ele>12.63</ele><time>2013-09-18T09:25:49Z</time></trkpt><trkpt lat="51.7396445945" lon="-2.2694411036"><ele>13.12</ele><time>2013-09-18T09:26:10Z</time></trkpt><trkpt lat="51.7397121526" lon="-2.2693149559"><ele>12.63</ele><time>2013-09-18T09:26:30Z</time></trkpt><trkpt lat="51.7397743464" lon="-2.2689781711"><ele>13.12</ele><time>2013-09-18T09:26:50Z</time></trkpt><trkpt lat="51.7397684790" lon="-2.2685625125"><ele>13.12</ele><time>2013-09-18T09:27:13Z</time></trkpt><trkpt lat="51.7397638690" lon="-2.2684071958"><ele>13.12</ele><time>2013-09-18T09:27:31Z</time></trkpt><trkpt lat="51.7397567444" lon="-2.2681735083"><ele>13.60</ele><time>2013-09-18T09:27:52Z</time></trkpt><trkpt lat="51.7397581693" lon="-2.2677836660"><ele>13.60</ele><time>2013-09-18T09:28:16Z</time></trkpt><trkpt lat="51.7397340294" lon="-2.2674453724"><ele>13.12</ele><time>2013-09-18T09:28:36Z</time></trkpt><trkpt lat="51.7397483625" lon="-2.2672333103"><ele>13.12</ele><time>2013-09-18T09:28:56Z</time></trkpt><trkpt lat="51.7397416569" lon="-2.2670072503"><ele>13.12</ele><time>2013-09-18T09:29:09Z</time></trkpt><trkpt lat="51.7397420760" lon="-2.2666865587"><ele>13.60</ele><time>2013-09-18T09:29:27Z</time></trkpt><trkpt lat="51.7397188582" lon="-2.2664486803"><ele>13.60</ele><time>2013-09-18T09:29:49Z</time></trkpt><trkpt lat="51.7397187743" lon="-2.2662117239"><ele>13.60</ele><time>2013-09-18T09:30:06Z</time></trkpt><trkpt lat="51.7397091351" lon="-2.2659414914"><ele>13.60</ele><time>2013-09-18T09:30:26Z</time></trkpt><trkpt lat="51.7397091351" lon="-2.2656425927"><ele>14.08</ele><time>2013-09-18T09:30:46Z</time></trkpt><trkpt lat="51.7397293355" lon="-2.2657163534"><ele>13.60</ele><time>2013-09-18T09:31:08Z</time></trkpt><trkpt lat="51.7397591751" lon="-2.2658090573"><ele>13.60</ele><time>2013-09-18T09:31:34Z</time></trkpt><trkpt lat="51.7397418246" lon="-2.2657953110"><ele>14.56</ele><time>2013-09-18T09:31:57Z</time></trkpt><trkpt lat="51.7398156691" lon="-2.2653905489"><ele>15.04</ele><time>2013-09-18T09:32:18Z</time></trkpt><trkpt lat="51.7397859972" lon="-2.2652590368"><ele>15.04</ele><time>2013-09-18T09:32:25Z</time></trkpt><trkpt lat="51.7397687305" lon="-2.2651670873"><ele>15.04</ele><time>2013-09-18T09:32:29Z</time></trkpt><trkpt lat="51.7397225462" lon="-2.2651907243"><ele>15.52</ele><time>2013-09-18T09:32:46Z</time></trkpt><trkpt lat="51.7397366278" lon="-2.2653548419"><ele>15.52</ele><time>2013-09-18T09:33:04Z</time></trkpt><trkpt lat="51.7397303414" lon="-2.2653639782"><ele>15.52</ele><time>2013-09-18T09:33:06Z</time></trkpt><trkpt lat="51.7397592589" lon="-2.2649926599"><ele>15.52</ele><time>2013-09-18T09:33:25Z</time></trkpt><trkpt lat="51.7397643719" lon="-2.2643699683"><ele>16.00</ele><time>2013-09-18T09:33:47Z</time></trkpt><trkpt lat="51.7397659644" lon="-2.2642905079"><ele>16.00</ele><time>2013-09-18T09:33:50Z</time></trkpt><trkpt lat="51.7397930380" lon="-2.2641282342"><ele>16.00</ele><time>2013-09-18T09:33:57Z</time></trkpt><trkpt lat="51.7397817224" lon="-2.2639981471"><ele>16.48</ele><time>2013-09-18T09:34:03Z</time></trkpt><trkpt lat="51.7398099694" lon="-2.2638377175"><ele>16.48</ele><time>2013-09-18T09:34:10Z</time></trkpt><trkpt lat="51.7398983985" lon="-2.2636887711"><ele>18.40</ele><time>2013-09-18T09:34:23Z</time></trkpt><trkpt lat="51.7399170063" lon="-2.2635150980"><ele>18.40</ele><time>2013-09-18T09:34:39Z</time></trkpt><trkpt lat="51.7398743425" lon="-2.2631524969"><ele>20.81</ele><time>2013-09-18T09:34:54Z</time></trkpt><trkpt lat="51.7398992367" lon="-2.2628955077"><ele>21.29</ele><time>2013-09-18T09:35:10Z</time></trkpt><trkpt lat="51.7398964707" lon="-2.2628757264"><ele>21.29</ele><time>2013-09-18T09:35:30Z</time></trkpt><trkpt lat="51.7399147432" lon="-2.2629142832"><ele>21.29</ele><time>2013-09-18T09:35:48Z</time></trkpt><trkpt lat="51.7398873344" lon="-2.2629561089"><ele>21.29</ele><time>2013-09-18T09:36:06Z</time></trkpt><trkpt lat="51.7398589198" lon="-2.2629250120"><ele>21.77</ele><time>2013-09-18T09:36:21Z</time></trkpt><trkpt lat="51.7398536392" lon="-2.2629592940"><ele>21.77</ele><time>2013-09-18T09:36:39Z</time></trkpt><trkpt lat="51.7398525495" lon="-2.2629303765"><ele>21.77</ele><time>2013-09-18T09:36:59Z</time></trkpt><trkpt lat="51.7398561537" lon="-2.2629045602"><ele>21.77</ele><time>2013-09-18T09:37:19Z</time></trkpt><trkpt lat="51.7398555670" lon="-2.2629245091"><ele>21.77</ele><time>2013-09-18T09:37:42Z</time></trkpt><trkpt lat="51.7398541421" lon="-2.2629241738"><ele>21.77</ele><time>2013-09-18T09:38:09Z</time></trkpt><trkpt lat="51.7398536392" lon="-2.2629124392"><ele>21.77</ele><time>2013-09-18T09:38:32Z</time></trkpt><trkpt lat="51.7398553994" lon="-2.2629103437"><ele>22.25</ele><time>2013-09-18T09:38:52Z</time></trkpt><trkpt lat="51.7398574948" lon="-2.2629108466"><ele>21.77</ele><time>2013-09-18T09:39:16Z</time></trkpt><trkpt lat="51.7398559023" lon="-2.2629002016"><ele>21.77</ele><time>2013-09-18T09:39:48Z</time></trkpt><trkpt lat="51.7398551479" lon="-2.2629043087"><ele>21.77</ele><time>2013-09-18T09:40:11Z</time></trkpt><trkpt lat="51.7398466822" lon="-2.2628825996"><ele>21.77</ele><time>2013-09-18T09:40:27Z</time></trkpt><trkpt lat="51.7398475204" lon="-2.2628843598"><ele>22.25</ele><time>2013-09-18T09:40:48Z</time></trkpt><trkpt lat="51.7398442514" lon="-2.2630117647"><ele>21.77</ele><time>2013-09-18T09:41:07Z</time></trkpt><trkpt lat="51.7398612667" lon="-2.2633262537"><ele>22.25</ele><time>2013-09-18T09:41:31Z</time></trkpt><trkpt lat="51.7398305051" lon="-2.2632507328"><ele>21.77</ele><time>2013-09-18T09:41:56Z</time></trkpt><trkpt lat="51.7398047727" lon="-2.2632312030"><ele>22.25</ele><time>2013-09-18T09:42:15Z</time></trkpt><trkpt lat="51.7398668826" lon="-2.2631037142"><ele>22.25</ele><time>2013-09-18T09:42:34Z</time></trkpt><trkpt lat="51.7398610990" lon="-2.2629466373"><ele>22.25</ele><time>2013-09-18T09:42:50Z</time></trkpt><trkpt lat="51.7398609314" lon="-2.2629509121"><ele>22.73</ele><time>2013-09-18T09:43:15Z</time></trkpt><trkpt lat="51.7398590036" lon="-2.2629522532"><ele>22.73</ele><time>2013-09-18T09:43:40Z</time></trkpt><trkpt lat="51.7398618534" lon="-2.2629494034"><ele>24.17</ele><time>2013-09-18T09:44:11Z</time></trkpt><trkpt lat="51.7398635298" lon="-2.2629494872"><ele>22.73</ele><time>2013-09-18T09:44:39Z</time></trkpt><trkpt lat="51.7398727499" lon="-2.2629725374"><ele>23.69</ele><time>2013-09-18T09:45:01Z</time></trkpt><trkpt lat="51.7398734204" lon="-2.2629566956"><ele>24.17</ele><time>2013-09-18T09:45:20Z</time></trkpt><trkpt lat="51.7398738395" lon="-2.2629547678"><ele>23.69</ele><time>2013-09-18T09:45:47Z</time></trkpt><trkpt lat="51.7398725823" lon="-2.2629512474"><ele>24.17</ele><time>2013-09-18T09:46:19Z</time></trkpt><trkpt lat="51.7398754321" lon="-2.2629532591"><ele>24.17</ele><time>2013-09-18T09:46:49Z</time></trkpt><trkpt lat="51.7398756836" lon="-2.2629715316"><ele>24.65</ele><time>2013-09-18T09:47:22Z</time></trkpt><trkpt lat="51.7398740072" lon="-2.2629724536"><ele>24.65</ele><time>2013-09-18T09:47:44Z</time></trkpt><trkpt lat="51.7398746777" lon="-2.2629731242"><ele>24.65</ele><time>2013-09-18T09:48:11Z</time></trkpt><trkpt lat="51.7398729175" lon="-2.2629700229"><ele>24.65</ele><time>2013-09-18T09:48:44Z</time></trkpt><trkpt lat="51.7398677208" lon="-2.2629661672"><ele>24.65</ele><time>2013-09-18T09:49:13Z</time></trkpt><trkpt lat="51.7398786172" lon="-2.2629935760"><ele>24.65</ele><time>2013-09-18T09:49:40Z</time></trkpt><trkpt lat="51.7398774438" lon="-2.2631182149"><ele>24.65</ele><time>2013-09-18T09:50:00Z</time></trkpt><trkpt lat="51.7398816347" lon="-2.2631122638"><ele>25.13</ele><time>2013-09-18T09:50:28Z</time></trkpt><trkpt lat="51.7398879211" lon="-2.2630735394"><ele>25.13</ele><time>2013-09-18T09:50:46Z</time></trkpt><trkpt lat="51.7398794554" lon="-2.2630804125"><ele>25.61</ele><time>2013-09-18T09:51:18Z</time></trkpt><trkpt lat="51.7398781981" lon="-2.2630851902"><ele>25.13</ele><time>2013-09-18T09:51:44Z</time></trkpt><trkpt lat="51.7398776952" lon="-2.2630881239"><ele>25.13</ele><time>2013-09-18T09:52:05Z</time></trkpt><trkpt lat="51.7398713250" lon="-2.2631084081"><ele>25.61</ele><time>2013-09-18T09:52:33Z</time></trkpt><trkpt lat="51.7398770247" lon="-2.2631141916"><ele>25.61</ele><time>2013-09-18T09:53:02Z</time></trkpt><trkpt lat="51.7398769408" lon="-2.2630672529"><ele>26.09</ele><time>2013-09-18T09:53:31Z</time></trkpt><trkpt lat="51.7398541421" lon="-2.2629951686"><ele>26.09</ele><time>2013-09-18T09:53:45Z</time></trkpt><trkpt lat="51.7398565728" lon="-2.2629912291"><ele>26.09</ele><time>2013-09-18T09:54:11Z</time></trkpt><trkpt lat="51.7398592550" lon="-2.2629861999"><ele>26.09</ele><time>2013-09-18T09:54:28Z</time></trkpt><trkpt lat="51.7398598418" lon="-2.2629235033"><ele>26.57</ele><time>2013-09-18T09:54:49Z</time></trkpt><trkpt lat="51.7398557346" lon="-2.2628706973"><ele>26.57</ele><time>2013-09-18T09:55:02Z</time></trkpt><trkpt lat="51.7398574948" lon="-2.2628670093"><ele>27.05</ele><time>2013-09-18T09:55:22Z</time></trkpt><trkpt lat="51.7398608476" lon="-2.2628639918"><ele>26.57</ele><time>2013-09-18T09:55:43Z</time></trkpt><trkpt lat="51.7398648709" lon="-2.2628590465"><ele>27.05</ele><time>2013-09-18T09:56:07Z</time></trkpt><trkpt lat="51.7398811318" lon="-2.2627295461"><ele>27.05</ele><time>2013-09-18T09:56:29Z</time></trkpt><trkpt lat="51.7399194371" lon="-2.2624650970"><ele>26.57</ele><time>2013-09-18T09:56:45Z</time></trkpt><trkpt lat="51.7399179284" lon="-2.2622145619"><ele>27.53</ele><time>2013-09-18T09:57:01Z</time></trkpt><trkpt lat="51.7399419844" lon="-2.2619708162"><ele>27.53</ele><time>2013-09-18T09:57:16Z</time></trkpt><trkpt lat="51.7399342731" lon="-2.2619124781"><ele>27.53</ele><time>2013-09-18T09:57:33Z</time></trkpt><trkpt lat="51.7399249692" lon="-2.2618681379"><ele>27.53</ele><time>2013-09-18T09:57:51Z</time></trkpt><trkpt lat="51.7399631068" lon="-2.2615633719"><ele>28.02</ele><time>2013-09-18T09:58:10Z</time></trkpt><trkpt lat="51.7399808764" lon="-2.2613383178"><ele>27.53</ele><time>2013-09-18T09:58:26Z</time></trkpt><trkpt lat="51.7400077824" lon="-2.2610602900"><ele>27.53</ele><time>2013-09-18T09:58:43Z</time></trkpt><trkpt lat="51.7400349397" lon="-2.2607487347"><ele>28.02</ele><time>2013-09-18T09:59:01Z</time></trkpt><trkpt lat="51.7400588281" lon="-2.2604406159"><ele>28.02</ele><time>2013-09-18T09:59:20Z</time></trkpt><trkpt lat="51.7400834709" lon="-2.2601211816"><ele>28.02</ele><time>2013-09-18T09:59:39Z</time></trkpt><trkpt lat="51.7401018273" lon="-2.2597988136"><ele>28.02</ele><time>2013-09-18T09:59:58Z</time></trkpt><trkpt lat="51.7401009891" lon="-2.2594442591"><ele>28.02</ele><time>2013-09-18T10:00:18Z</time></trkpt><trkpt lat="51.7401117180" lon="-2.2590912133"><ele>28.02</ele><time>2013-09-18T10:00:36Z</time></trkpt><trkpt lat="51.7400810402" lon="-2.2588098329"><ele>28.02</ele><time>2013-09-18T10:00:55Z</time></trkpt><trkpt lat="51.7400817946" lon="-2.2585341521"><ele>28.02</ele><time>2013-09-18T10:01:14Z</time></trkpt><trkpt lat="51.7400644440" lon="-2.2584105190"><ele>27.53</ele><time>2013-09-18T10:01:21Z</time></trkpt><trkpt lat="51.7400595825" lon="-2.2583500855"><ele>28.02</ele><time>2013-09-18T10:01:24Z</time></trkpt><trkpt lat="51.7400325090" lon="-2.2579339240"><ele>28.50</ele><time>2013-09-18T10:01:46Z</time></trkpt><trkpt lat="51.7400156613" lon="-2.2577296570"><ele>28.02</ele><time>2013-09-18T10:02:06Z</time></trkpt><trkpt lat="51.7400025018" lon="-2.2577945329"><ele>28.50</ele><time>2013-09-18T10:02:30Z</time></trkpt><trkpt lat="51.7399214488" lon="-2.2578962892"><ele>29.94</ele><time>2013-09-18T10:02:49Z</time></trkpt><trkpt lat="51.7398532201" lon="-2.2580974549"><ele>30.42</ele><time>2013-09-18T10:03:07Z</time></trkpt><trkpt lat="51.7398440000" lon="-2.2581604030"><ele>29.94</ele><time>2013-09-18T10:03:12Z</time></trkpt><trkpt lat="51.7398263142" lon="-2.2583839484"><ele>29.94</ele><time>2013-09-18T10:03:27Z</time></trkpt><trkpt lat="51.7397946306" lon="-2.2586347349"><ele>29.94</ele><time>2013-09-18T10:03:45Z</time></trkpt><trkpt lat="51.7397260666" lon="-2.2589664906"><ele>30.42</ele><time>2013-09-18T10:04:06Z</time></trkpt><trkpt lat="51.7396761104" lon="-2.2592822369"><ele>29.94</ele><time>2013-09-18T10:04:27Z</time></trkpt><trkpt lat="51.7396569997" lon="-2.2595821414"><ele>28.50</ele><time>2013-09-18T10:04:47Z</time></trkpt><trkpt lat="51.7396150064" lon="-2.2599376179"><ele>29.46</ele><time>2013-09-18T10:05:10Z</time></trkpt><trkpt lat="51.7395575903" lon="-2.2602608241"><ele>28.50</ele><time>2013-09-18T10:05:31Z</time></trkpt><trkpt lat="51.7395384796" lon="-2.2605784144"><ele>28.02</ele><time>2013-09-18T10:05:52Z</time></trkpt><trkpt lat="51.7394348793" lon="-2.2608929034"><ele>27.53</ele><time>2013-09-18T10:06:12Z</time></trkpt><trkpt lat="51.7393902875" lon="-2.2609951627"><ele>26.09</ele><time>2013-09-18T10:06:31Z</time></trkpt><trkpt lat="51.7393146828" lon="-2.2611010261"><ele>25.61</ele><time>2013-09-18T10:06:51Z</time></trkpt><trkpt lat="51.7392834183" lon="-2.2611651476"><ele>25.61</ele><time>2013-09-18T10:07:09Z</time></trkpt><trkpt lat="51.7392491363" lon="-2.2611472104"><ele>24.65</ele><time>2013-09-18T10:07:38Z</time></trkpt><trkpt lat="51.7391622160" lon="-2.2609778959"><ele>24.65</ele><time>2013-09-18T10:07:50Z</time></trkpt><trkpt lat="51.7390664108" lon="-2.2608561907"><ele>24.65</ele><time>2013-09-18T10:07:58Z</time></trkpt><trkpt lat="51.7390292790" lon="-2.2608654946"><ele>24.65</ele><time>2013-09-18T10:08:01Z</time></trkpt><trkpt lat="51.7388038058" lon="-2.2609087452"><ele>26.09</ele><time>2013-09-18T10:08:19Z</time></trkpt><trkpt lat="51.7386292946" lon="-2.2609601263"><ele>24.65</ele><time>2013-09-18T10:08:34Z</time></trkpt><trkpt lat="51.7386108544" lon="-2.2609639820"><ele>25.13</ele><time>2013-09-18T10:08:36Z</time></trkpt><trkpt lat="51.7385401111" lon="-2.2609851882"><ele>25.13</ele><time>2013-09-18T10:08:43Z</time></trkpt><trkpt lat="51.7384930886" lon="-2.2610215656"><ele>25.61</ele><time>2013-09-18T10:08:48Z</time></trkpt><trkpt lat="51.7383633368" lon="-2.2612030338"><ele>25.13</ele><time>2013-09-18T10:09:02Z</time></trkpt><trkpt lat="51.7383218464" lon="-2.2613387369"><ele>24.65</ele><time>2013-09-18T10:09:10Z</time></trkpt><trkpt lat="51.7382009793" lon="-2.2615642939"><ele>26.09</ele><time>2013-09-18T10:09:26Z</time></trkpt><trkpt lat="51.7381948605" lon="-2.2616383899"><ele>26.09</ele><time>2013-09-18T10:09:43Z</time></trkpt><trkpt lat="51.7381636798" lon="-2.2616496217"><ele>27.05</ele><time>2013-09-18T10:10:01Z</time></trkpt><trkpt lat="51.7381641828" lon="-2.2616465203"><ele>27.05</ele><time>2013-09-18T10:10:27Z</time></trkpt><trkpt lat="51.7381236143" lon="-2.2614354640"><ele>26.57</ele><time>2013-09-18T10:10:41Z</time></trkpt><trkpt lat="51.7380920146" lon="-2.2611560952"><ele>27.05</ele><time>2013-09-18T10:10:55Z</time></trkpt><trkpt lat="51.7380867340" lon="-2.2611303627"><ele>26.57</ele><time>2013-09-18T10:10:57Z</time></trkpt><trkpt lat="51.7380435672" lon="-2.2608546820"><ele>27.05</ele><time>2013-09-18T10:11:14Z</time></trkpt><trkpt lat="51.7380249593" lon="-2.2608034685"><ele>26.57</ele><time>2013-09-18T10:11:18Z</time></trkpt><trkpt lat="51.7380363587" lon="-2.2606681846"><ele>27.05</ele><time>2013-09-18T10:11:23Z</time></trkpt><trkpt lat="51.7380283121" lon="-2.2603839543"><ele>27.05</ele><time>2013-09-18T10:11:39Z</time></trkpt><trkpt lat="51.7380330060" lon="-2.2601011489"><ele>27.53</ele><time>2013-09-18T10:11:53Z</time></trkpt><trkpt lat="51.7379903421" lon="-2.2597884201"><ele>27.05</ele><time>2013-09-18T10:12:11Z</time></trkpt><trkpt lat="51.7379221972" lon="-2.2594616935"><ele>27.05</ele><time>2013-09-18T10:12:34Z</time></trkpt><trkpt lat="51.7379103787" lon="-2.2591736075"><ele>27.53</ele><time>2013-09-18T10:12:52Z</time></trkpt><trkpt lat="51.7378919385" lon="-2.2588464618"><ele>28.02</ele><time>2013-09-18T10:13:11Z</time></trkpt><trkpt lat="51.7378521245" lon="-2.2585731279"><ele>28.02</ele><time>2013-09-18T10:13:28Z</time></trkpt><trkpt lat="51.7378548067" lon="-2.2584471479"><ele>28.02</ele><time>2013-09-18T10:13:42Z</time></trkpt><trkpt lat="51.7378454190" lon="-2.2583921626"><ele>28.02</ele><time>2013-09-18T10:13:46Z</time></trkpt><trkpt lat="51.7378134839" lon="-2.2581026517"><ele>27.53</ele><time>2013-09-18T10:14:04Z</time></trkpt><trkpt lat="51.7377818841" lon="-2.2578677908"><ele>28.02</ele><time>2013-09-18T10:14:20Z</time></trkpt><trkpt lat="51.7377782799" lon="-2.2575883381"><ele>27.53</ele><time>2013-09-18T10:14:37Z</time></trkpt><trkpt lat="51.7377592530" lon="-2.2573301755"><ele>27.53</ele><time>2013-09-18T10:14:54Z</time></trkpt><trkpt lat="51.7377336882" lon="-2.2569775488"><ele>27.53</ele><time>2013-09-18T10:15:13Z</time></trkpt><trkpt lat="51.7377322633" lon="-2.2569187079"><ele>27.53</ele><time>2013-09-18T10:15:16Z</time></trkpt><trkpt lat="51.7377303354" lon="-2.2568648122"><ele>27.53</ele><time>2013-09-18T10:15:19Z</time></trkpt><trkpt lat="51.7377263121" lon="-2.2565524187"><ele>28.02</ele><time>2013-09-18T10:15:38Z</time></trkpt><trkpt lat="51.7377096321" lon="-2.2562791687"><ele>28.02</ele><time>2013-09-18T10:15:56Z</time></trkpt><trkpt lat="51.7376686446" lon="-2.2560300585"><ele>27.53</ele><time>2013-09-18T10:16:13Z</time></trkpt><trkpt lat="51.7377065308" lon="-2.2557197604"><ele>28.02</ele><time>2013-09-18T10:16:31Z</time></trkpt><trkpt lat="51.7376952991" lon="-2.2557133902"><ele>27.53</ele><time>2013-09-18T10:16:51Z</time></trkpt><trkpt lat="51.7376491148" lon="-2.2558182478"><ele>28.02</ele><time>2013-09-18T10:17:05Z</time></trkpt><trkpt lat="51.7377009150" lon="-2.2557244543"><ele>28.02</ele><time>2013-09-18T10:17:25Z</time></trkpt><trkpt lat="51.7377054412" lon="-2.2556967102"><ele>28.50</ele><time>2013-09-18T10:17:48Z</time></trkpt><trkpt lat="51.7377453391" lon="-2.2555556428"><ele>28.50</ele><time>2013-09-18T10:18:06Z</time></trkpt><trkpt lat="51.7377313413" lon="-2.2552030999"><ele>28.98</ele><time>2013-09-18T10:18:25Z</time></trkpt><trkpt lat="51.7377180140" lon="-2.2547623795"><ele>29.46</ele><time>2013-09-18T10:18:45Z</time></trkpt><trkpt lat="51.7377135716" lon="-2.2545854375"><ele>28.98</ele><time>2013-09-18T10:18:54Z</time></trkpt><trkpt lat="51.7377243843" lon="-2.2543987725"><ele>29.94</ele><time>2013-09-18T10:19:08Z</time></trkpt><trkpt lat="51.7377798725" lon="-2.2544096690"><ele>28.98</ele><time>2013-09-18T10:19:23Z</time></trkpt><trkpt lat="51.7376522161" lon="-2.2544234991"><ele>29.94</ele><time>2013-09-18T10:19:36Z</time></trkpt><trkpt lat="51.7375677265" lon="-2.2544982657"><ele>29.94</ele><time>2013-09-18T10:19:48Z</time></trkpt><trkpt lat="51.7375597637" lon="-2.2545485571"><ele>30.42</ele><time>2013-09-18T10:20:02Z</time></trkpt><trkpt lat="51.7375611048" lon="-2.2545524966"><ele>30.42</ele><time>2013-09-18T10:20:22Z</time></trkpt><trkpt lat="51.7375598475" lon="-2.2545525804"><ele>29.94</ele><time>2013-09-18T10:20:24Z</time></trkpt><trkpt lat="51.7375191953" lon="-2.2545540053"><ele>29.94</ele><time>2013-09-18T10:20:28Z</time></trkpt><trkpt lat="51.7374393996" lon="-2.2545112576"><ele>30.42</ele><time>2013-09-18T10:20:42Z</time></trkpt><trkpt lat="51.7374177743" lon="-2.2544625588"><ele>30.90</ele><time>2013-09-18T10:21:01Z</time></trkpt><trkpt lat="51.7373264115" lon="-2.2544075735"><ele>29.94</ele><time>2013-09-18T10:21:23Z</time></trkpt><trkpt lat="51.7373606935" lon="-2.2544483934"><ele>29.94</ele><time>2013-09-18T10:21:39Z</time></trkpt><trkpt lat="51.7373346258" lon="-2.2546044644"><ele>30.42</ele><time>2013-09-18T10:21:45Z</time></trkpt><trkpt lat="51.7372247390" lon="-2.2547239903"><ele>30.90</ele><time>2013-09-18T10:21:59Z</time></trkpt><trkpt lat="51.7370757926" lon="-2.2549394052"><ele>32.82</ele><time>2013-09-18T10:22:24Z</time></trkpt><trkpt lat="51.7369980924" lon="-2.2551255673"><ele>33.78</ele><time>2013-09-18T10:22:38Z</time></trkpt><trkpt lat="51.7368958332" lon="-2.2552766930"><ele>34.26</ele><time>2013-09-18T10:22:52Z</time></trkpt><trkpt lat="51.7368113436" lon="-2.2554036789"><ele>36.19</ele><time>2013-09-18T10:23:04Z</time></trkpt><trkpt lat="51.7367302068" lon="-2.2555225343"><ele>38.59</ele><time>2013-09-18T10:23:17Z</time></trkpt><trkpt lat="51.7367263511" lon="-2.2555320896"><ele>38.11</ele><time>2013-09-18T10:23:18Z</time></trkpt><trkpt lat="51.7366633192" lon="-2.2556001507"><ele>39.55</ele><time>2013-09-18T10:23:31Z</time></trkpt><trkpt lat="51.7366546858" lon="-2.2555990610"><ele>39.55</ele><time>2013-09-18T10:23:32Z</time></trkpt><trkpt lat="51.7366169672" lon="-2.2556057665"><ele>40.03</ele><time>2013-09-18T10:23:35Z</time></trkpt><trkpt lat="51.7365473136" lon="-2.2556045093"><ele>40.51</ele><time>2013-09-18T10:23:42Z</time></trkpt><trkpt lat="51.7364955135" lon="-2.2555839736"><ele>41.47</ele><time>2013-09-18T10:23:48Z</time></trkpt><trkpt lat="51.7363229301" lon="-2.2555169184"><ele>43.40</ele><time>2013-09-18T10:24:06Z</time></trkpt><trkpt lat="51.7362280469" lon="-2.2555035912"><ele>43.88</ele><time>2013-09-18T10:24:17Z</time></trkpt><trkpt lat="51.7361459881" lon="-2.2554735001"><ele>43.88</ele><time>2013-09-18T10:24:26Z</time></trkpt><trkpt lat="51.7360785976" lon="-2.2554310877"><ele>44.84</ele><time>2013-09-18T10:24:34Z</time></trkpt><trkpt lat="51.7360366881" lon="-2.2554168385"><ele>44.84</ele><time>2013-09-18T10:24:38Z</time></trkpt><trkpt lat="51.7359958682" lon="-2.2553949617"><ele>45.32</ele><time>2013-09-18T10:24:43Z</time></trkpt><trkpt lat="51.7359558865" lon="-2.2553638648"><ele>46.28</ele><time>2013-09-18T10:24:48Z</time></trkpt><trkpt lat="51.7358817067" lon="-2.2553384677"><ele>47.24</ele><time>2013-09-18T10:24:57Z</time></trkpt><trkpt lat="51.7358023301" lon="-2.2552950494"><ele>48.20</ele><time>2013-09-18T10:25:05Z</time></trkpt><trkpt lat="51.7357512005" lon="-2.2552676406"><ele>48.20</ele><time>2013-09-18T10:25:10Z</time></trkpt><trkpt lat="51.7356841452" lon="-2.2552341130"><ele>48.68</ele><time>2013-09-18T10:25:18Z</time></trkpt><trkpt lat="51.7356158327" lon="-2.2552050278"><ele>49.65</ele><time>2013-09-18T10:25:25Z</time></trkpt><trkpt lat="51.7355828080" lon="-2.2551910300"><ele>49.65</ele><time>2013-09-18T10:25:30Z</time></trkpt><trkpt lat="51.7354918644" lon="-2.2551694047"><ele>51.57</ele><time>2013-09-18T10:25:38Z</time></trkpt><trkpt lat="51.7354531400" lon="-2.2551485337"><ele>51.57</ele><time>2013-09-18T10:25:42Z</time></trkpt><trkpt lat="51.7353782896" lon="-2.2551096417"><ele>53.01</ele><time>2013-09-18T10:25:51Z</time></trkpt><trkpt lat="51.7353052832" lon="-2.2550696600"><ele>53.01</ele><time>2013-09-18T10:26:00Z</time></trkpt><trkpt lat="51.7352792993" lon="-2.2550597694"><ele>54.45</ele><time>2013-09-18T10:26:10Z</time></trkpt><trkpt lat="51.7352859210" lon="-2.2550502978"><ele>53.97</ele><time>2013-09-18T10:26:31Z</time></trkpt><trkpt lat="51.7352829874" lon="-2.2550440952"><ele>54.45</ele><time>2013-09-18T10:26:49Z</time></trkpt><trkpt lat="51.7352766171" lon="-2.2550335340"><ele>54.45</ele><time>2013-09-18T10:27:08Z</time></trkpt><trkpt lat="51.7352686543" lon="-2.2550358810"><ele>54.45</ele><time>2013-09-18T10:27:32Z</time></trkpt><trkpt lat="51.7352081370" lon="-2.2550999187"><ele>54.93</ele><time>2013-09-18T10:27:43Z</time></trkpt><trkpt lat="51.7351907864" lon="-2.2551221307"><ele>55.41</ele><time>2013-09-18T10:27:45Z</time></trkpt><trkpt lat="51.7351565044" lon="-2.2551583406"><ele>56.37</ele><time>2013-09-18T10:27:49Z</time></trkpt><trkpt lat="51.7351140920" lon="-2.2552172653"><ele>55.41</ele><time>2013-09-18T10:28:00Z</time></trkpt><trkpt lat="51.7350854259" lon="-2.2552652098"><ele>56.37</ele><time>2013-09-18T10:28:19Z</time></trkpt><trkpt lat="51.7350524850" lon="-2.2553317621"><ele>56.86</ele><time>2013-09-18T10:28:25Z</time></trkpt><trkpt lat="51.7350312788" lon="-2.2553590871"><ele>55.89</ele><time>2013-09-18T10:28:28Z</time></trkpt><trkpt lat="51.7350048758" lon="-2.2553980630"><ele>57.82</ele><time>2013-09-18T10:28:34Z</time></trkpt><trkpt lat="51.7349680793" lon="-2.2554558143"><ele>56.37</ele><time>2013-09-18T10:28:41Z</time></trkpt><trkpt lat="51.7349373177" lon="-2.2554758471"><ele>55.89</ele><time>2013-09-18T10:28:44Z</time></trkpt><trkpt lat="51.7348850984" lon="-2.2555184271"><ele>57.34</ele><time>2013-09-18T10:28:55Z</time></trkpt><trkpt lat="51.7348757107" lon="-2.2555211093"><ele>57.34</ele><time>2013-09-18T10:28:57Z</time></trkpt><trkpt lat="51.7348515708" lon="-2.2555479314"><ele>56.37</ele><time>2013-09-18T10:29:01Z</time></trkpt><trkpt lat="51.7347877845" lon="-2.2556579020"><ele>58.30</ele><time>2013-09-18T10:29:09Z</time></trkpt><trkpt lat="51.7347171251" lon="-2.2557765059"><ele>57.34</ele><time>2013-09-18T10:29:18Z</time></trkpt><trkpt lat="51.7346883751" lon="-2.2558296472"><ele>59.26</ele><time>2013-09-18T10:29:22Z</time></trkpt><trkpt lat="51.7346352339" lon="-2.2559064254"><ele>58.30</ele><time>2013-09-18T10:29:29Z</time></trkpt><trkpt lat="51.7346015386" lon="-2.2559345048"><ele>59.74</ele><time>2013-09-18T10:29:32Z</time></trkpt><trkpt lat="51.7346007843" lon="-2.2559350077"><ele>59.26</ele><time>2013-09-18T10:29:33Z</time></trkpt><trkpt lat="51.7345782369" lon="-2.2559550405"><ele>59.26</ele><time>2013-09-18T10:29:37Z</time></trkpt><trkpt lat="51.7345245928" lon="-2.2560086846"><ele>60.70</ele><time>2013-09-18T10:29:44Z</time></trkpt><trkpt lat="51.7344633210" lon="-2.2561294679"><ele>60.70</ele><time>2013-09-18T10:29:52Z</time></trkpt><trkpt lat="51.7343872972" lon="-2.2562582139"><ele>62.14</ele><time>2013-09-18T10:30:01Z</time></trkpt><trkpt lat="51.7343532667" lon="-2.2563090920"><ele>59.74</ele><time>2013-09-18T10:30:07Z</time></trkpt><trkpt lat="51.7343322281" lon="-2.2563339863"><ele>61.66</ele><time>2013-09-18T10:30:11Z</time></trkpt><trkpt lat="51.7343141232" lon="-2.2563515883"><ele>61.66</ele><time>2013-09-18T10:30:14Z</time></trkpt><trkpt lat="51.7342834454" lon="-2.2563515883"><ele>63.58</ele><time>2013-09-18T10:30:17Z</time></trkpt><trkpt lat="51.7342800926" lon="-2.2563571204"><ele>62.62</ele><time>2013-09-18T10:30:18Z</time></trkpt><trkpt lat="51.7342071701" lon="-2.2563923243"><ele>63.10</ele><time>2013-09-18T10:30:29Z</time></trkpt><trkpt lat="51.7341960222" lon="-2.2564179730"><ele>56.86</ele><time>2013-09-18T10:30:38Z</time></trkpt><trkpt lat="51.7341960222" lon="-2.2564193979"><ele>70.31</ele><time>2013-09-18T10:30:39Z</time></trkpt><trkpt lat="51.7341961060" lon="-2.2564202361"><ele>66.47</ele><time>2013-09-18T10:30:40Z</time></trkpt><trkpt lat="51.7341967765" lon="-2.2564276960"><ele>64.55</ele><time>2013-09-18T10:30:42Z</time></trkpt><trkpt lat="51.7341925018" lon="-2.2564734612"><ele>62.62</ele><time>2013-09-18T10:30:52Z</time></trkpt><trkpt lat="51.7341930885" lon="-2.2564812563"><ele>63.58</ele><time>2013-09-18T10:30:53Z</time></trkpt><trkpt lat="51.7341409530" lon="-2.2565510776"><ele>64.07</ele><time>2013-09-18T10:31:03Z</time></trkpt><trkpt lat="51.7340553738" lon="-2.2566570248"><ele>65.03</ele><time>2013-09-18T10:31:18Z</time></trkpt><trkpt lat="51.7340502609" lon="-2.2566680051"><ele>63.58</ele><time>2013-09-18T10:31:34Z</time></trkpt><trkpt lat="51.7340277135" lon="-2.2566775605"><ele>63.10</ele><time>2013-09-18T10:31:37Z</time></trkpt><trkpt lat="51.7339803558" lon="-2.2567633074"><ele>64.55</ele><time>2013-09-18T10:31:46Z</time></trkpt><trkpt lat="51.7339703813" lon="-2.2567858547"><ele>64.07</ele><time>2013-09-18T10:32:03Z</time></trkpt><trkpt lat="51.7339635082" lon="-2.2567799035"><ele>64.55</ele><time>2013-09-18T10:32:29Z</time></trkpt><trkpt lat="51.7339512706" lon="-2.2567969188"><ele>64.07</ele><time>2013-09-18T10:32:32Z</time></trkpt><trkpt lat="51.7339282203" lon="-2.2568166163"><ele>64.55</ele><time>2013-09-18T10:32:35Z</time></trkpt><trkpt lat="51.7339038290" lon="-2.2568596154"><ele>64.55</ele><time>2013-09-18T10:32:39Z</time></trkpt><trkpt lat="51.7338836286" lon="-2.2569011897"><ele>64.55</ele><time>2013-09-18T10:32:43Z</time></trkpt><trkpt lat="51.7338337563" lon="-2.2569690831"><ele>64.55</ele><time>2013-09-18T10:32:50Z</time></trkpt><trkpt lat="51.7337652761" lon="-2.2570498008"><ele>64.55</ele><time>2013-09-18T10:32:59Z</time></trkpt><trkpt lat="51.7337372806" lon="-2.2570739407"><ele>65.03</ele><time>2013-09-18T10:33:02Z</time></trkpt><trkpt lat="51.7337105423" lon="-2.2570902854"><ele>65.51</ele><time>2013-09-18T10:33:05Z</time></trkpt><trkpt lat="51.7336848099" lon="-2.2571180295"><ele>65.99</ele><time>2013-09-18T10:33:09Z</time></trkpt><trkpt lat="51.7336282320" lon="-2.2571652196"><ele>66.47</ele><time>2013-09-18T10:33:16Z</time></trkpt><trkpt lat="51.7336064391" lon="-2.2571863420"><ele>65.99</ele><time>2013-09-18T10:33:20Z</time></trkpt><trkpt lat="51.7335327622" lon="-2.2572735976"><ele>66.95</ele><time>2013-09-18T10:33:31Z</time></trkpt><trkpt lat="51.7334880028" lon="-2.2573295888"><ele>66.95</ele><time>2013-09-18T10:33:37Z</time></trkpt><trkpt lat="51.7334613483" lon="-2.2573598474"><ele>66.95</ele><time>2013-09-18T10:33:41Z</time></trkpt><trkpt lat="51.7333989032" lon="-2.2574098036"><ele>67.91</ele><time>2013-09-18T10:33:51Z</time></trkpt><trkpt lat="51.7333467677" lon="-2.2574476060"><ele>68.87</ele><time>2013-09-18T10:33:59Z</time></trkpt><trkpt lat="51.7332981527" lon="-2.2574840672"><ele>68.87</ele><time>2013-09-18T10:34:05Z</time></trkpt><trkpt lat="51.7332397308" lon="-2.2575274017"><ele>69.83</ele><time>2013-09-18T10:34:12Z</time></trkpt><trkpt lat="51.7332098074" lon="-2.2575462610"><ele>69.35</ele><time>2013-09-18T10:34:16Z</time></trkpt><trkpt lat="51.7331829015" lon="-2.2575668804"><ele>69.83</ele><time>2013-09-18T10:34:20Z</time></trkpt><trkpt lat="51.7331466917" lon="-2.2575999051"><ele>70.31</ele><time>2013-09-18T10:34:24Z</time></trkpt><trkpt lat="51.7330585141" lon="-2.2576283198"><ele>70.31</ele><time>2013-09-18T10:34:33Z</time></trkpt><trkpt lat="51.7330332007" lon="-2.2576354444"><ele>70.31</ele><time>2013-09-18T10:34:35Z</time></trkpt><trkpt lat="51.7330225557" lon="-2.2576398868"><ele>69.35</ele><time>2013-09-18T10:34:37Z</time></trkpt><trkpt lat="51.7329865135" lon="-2.2576606739"><ele>69.35</ele><time>2013-09-18T10:34:41Z</time></trkpt><trkpt lat="51.7329506390" lon="-2.2576781921"><ele>68.87</ele><time>2013-09-18T10:34:45Z</time></trkpt><trkpt lat="51.7329311091" lon="-2.2576927766"><ele>68.87</ele><time>2013-09-18T10:34:47Z</time></trkpt><trkpt lat="51.7329158541" lon="-2.2576932795"><ele>68.87</ele><time>2013-09-18T10:34:49Z</time></trkpt><trkpt lat="51.7328986712" lon="-2.2576905135"><ele>69.35</ele><time>2013-09-18T10:34:51Z</time></trkpt><trkpt lat="51.7328562587" lon="-2.2577190958"><ele>68.39</ele><time>2013-09-18T10:34:55Z</time></trkpt><trkpt lat="51.7328238208" lon="-2.2577367816"><ele>68.87</ele><time>2013-09-18T10:34:59Z</time></trkpt><trkpt lat="51.7327877786" lon="-2.2577497736"><ele>68.39</ele><time>2013-09-18T10:35:03Z</time></trkpt><trkpt lat="51.7327695061" lon="-2.2577572335"><ele>67.91</ele><time>2013-09-18T10:35:05Z</time></trkpt><trkpt lat="51.7327381577" lon="-2.2577887494"><ele>66.95</ele><time>2013-09-18T10:35:09Z</time></trkpt><trkpt lat="51.7327087373" lon="-2.2577957902"><ele>66.47</ele><time>2013-09-18T10:35:13Z</time></trkpt><trkpt lat="51.7326737009" lon="-2.2578098718"><ele>66.95</ele><time>2013-09-18T10:35:17Z</time></trkpt><trkpt lat="51.7326004431" lon="-2.2578680422"><ele>66.47</ele><time>2013-09-18T10:35:26Z</time></trkpt><trkpt lat="51.7325695977" lon="-2.2578743286"><ele>67.43</ele><time>2013-09-18T10:35:29Z</time></trkpt><trkpt lat="51.7324955016" lon="-2.2579579800"><ele>66.47</ele><time>2013-09-18T10:35:37Z</time></trkpt><trkpt lat="51.7324222438" lon="-2.2580247000"><ele>61.18</ele><time>2013-09-18T10:35:46Z</time></trkpt><trkpt lat="51.7324169632" lon="-2.2580327466"><ele>66.95</ele><time>2013-09-18T10:35:47Z</time></trkpt><trkpt lat="51.7324112635" lon="-2.2580423020"><ele>70.79</ele><time>2013-09-18T10:35:48Z</time></trkpt><trkpt lat="51.7324056476" lon="-2.2580500972"><ele>70.79</ele><time>2013-09-18T10:35:49Z</time></trkpt><trkpt lat="51.7324023787" lon="-2.2580533661"><ele>61.18</ele><time>2013-09-18T10:35:50Z</time></trkpt><trkpt lat="51.7323965114" lon="-2.2580541205"><ele>68.87</ele><time>2013-09-18T10:35:51Z</time></trkpt><trkpt lat="51.7323660012" lon="-2.2580576409"><ele>69.35</ele><time>2013-09-18T10:35:54Z</time></trkpt><trkpt lat="51.7323491536" lon="-2.2580760811"><ele>68.39</ele><time>2013-09-18T10:35:56Z</time></trkpt><trkpt lat="51.7323338985" lon="-2.2580894083"><ele>65.03</ele><time>2013-09-18T10:35:58Z</time></trkpt><trkpt lat="51.7323263548" lon="-2.2580956109"><ele>68.39</ele><time>2013-09-18T10:35:59Z</time></trkpt><trkpt lat="51.7322644964" lon="-2.2582137957"><ele>66.95</ele><time>2013-09-18T10:36:10Z</time></trkpt><trkpt lat="51.7322580423" lon="-2.2582256142"><ele>70.79</ele><time>2013-09-18T10:36:11Z</time></trkpt><trkpt lat="51.7322534323" lon="-2.2582342476"><ele>66.95</ele><time>2013-09-18T10:36:12Z</time></trkpt><trkpt lat="51.7322370037" lon="-2.2582468204"><ele>70.79</ele><time>2013-09-18T10:36:14Z</time></trkpt><trkpt lat="51.7322281189" lon="-2.2582495864"><ele>66.95</ele><time>2013-09-18T10:36:15Z</time></trkpt><trkpt lat="51.7321901489" lon="-2.2582601476"><ele>68.87</ele><time>2013-09-18T10:36:28Z</time></trkpt><trkpt lat="51.7321712896" lon="-2.2582908254"><ele>67.91</ele><time>2013-09-18T10:36:46Z</time></trkpt><trkpt lat="51.7320767418" lon="-2.2583600599"><ele>68.39</ele><time>2013-09-18T10:37:00Z</time></trkpt><trkpt lat="51.7320668511" lon="-2.2583669331"><ele>68.39</ele><time>2013-09-18T10:37:02Z</time></trkpt><trkpt lat="51.7319412902" lon="-2.2584350780"><ele>70.79</ele><time>2013-09-18T10:37:17Z</time></trkpt><trkpt lat="51.7318937648" lon="-2.2584540211"><ele>67.43</ele><time>2013-09-18T10:37:22Z</time></trkpt><trkpt lat="51.7318635900" lon="-2.2584831901"><ele>68.87</ele><time>2013-09-18T10:37:26Z</time></trkpt><trkpt lat="51.7317963671" lon="-2.2585401032"><ele>68.39</ele><time>2013-09-18T10:37:35Z</time></trkpt><trkpt lat="51.7317195889" lon="-2.2586680111"><ele>69.83</ele><time>2013-09-18T10:37:51Z</time></trkpt><trkpt lat="51.7317135539" lon="-2.2587151174"><ele>70.79</ele><time>2013-09-18T10:38:08Z</time></trkpt><trkpt lat="51.7316744104" lon="-2.2587546799"><ele>69.83</ele><time>2013-09-18T10:38:12Z</time></trkpt><trkpt lat="51.7316371948" lon="-2.2588866949"><ele>71.27</ele><time>2013-09-18T10:38:23Z</time></trkpt><trkpt lat="51.7316368595" lon="-2.2589188814"><ele>72.24</ele><time>2013-09-18T10:38:25Z</time></trkpt><trkpt lat="51.7316074390" lon="-2.2590573505"><ele>71.76</ele><time>2013-09-18T10:38:36Z</time></trkpt><trkpt lat="51.7315019947" lon="-2.2590604518"><ele>72.72</ele><time>2013-09-18T10:38:47Z</time></trkpt><trkpt lat="51.7314768489" lon="-2.2590799816"><ele>72.24</ele><time>2013-09-18T10:38:50Z</time></trkpt><trkpt lat="51.7313942034" lon="-2.2591944784"><ele>72.24</ele><time>2013-09-18T10:39:01Z</time></trkpt><trkpt lat="51.7313123960" lon="-2.2593662236"><ele>71.76</ele><time>2013-09-18T10:39:17Z</time></trkpt><trkpt lat="51.7312963866" lon="-2.2594025172"><ele>75.12</ele><time>2013-09-18T10:39:21Z</time></trkpt><trkpt lat="51.7312789522" lon="-2.2594642919"><ele>71.76</ele><time>2013-09-18T10:39:29Z</time></trkpt><trkpt lat="51.7312638648" lon="-2.2594808042"><ele>73.68</ele><time>2013-09-18T10:39:34Z</time></trkpt><trkpt lat="51.7312137410" lon="-2.2595077939"><ele>74.64</ele><time>2013-09-18T10:39:41Z</time></trkpt><trkpt lat="51.7310484499" lon="-2.2596213687"><ele>74.16</ele><time>2013-09-18T10:39:59Z</time></trkpt><trkpt lat="51.7309036106" lon="-2.2598218638"><ele>73.68</ele><time>2013-09-18T10:40:17Z</time></trkpt><trkpt lat="51.7307736073" lon="-2.2599399649"><ele>74.64</ele><time>2013-09-18T10:40:34Z</time></trkpt><trkpt lat="51.7306825798" lon="-2.2600774281"><ele>71.27</ele><time>2013-09-18T10:40:53Z</time></trkpt><trkpt lat="51.7306799814" lon="-2.2600827087"><ele>74.64</ele><time>2013-09-18T10:40:54Z</time></trkpt><trkpt lat="51.7306695879" lon="-2.2601014003"><ele>73.20</ele><time>2013-09-18T10:40:57Z</time></trkpt><trkpt lat="51.7306067236" lon="-2.2601473331"><ele>73.68</ele><time>2013-09-18T10:41:03Z</time></trkpt><trkpt lat="51.7305198032" lon="-2.2602530289"><ele>74.16</ele><time>2013-09-18T10:41:16Z</time></trkpt><trkpt lat="51.7304396722" lon="-2.2603505943"><ele>78.00</ele><time>2013-09-18T10:41:26Z</time></trkpt><trkpt lat="51.7304346431" lon="-2.2603583895"><ele>76.56</ele><time>2013-09-18T10:41:27Z</time></trkpt><trkpt lat="51.7304285243" lon="-2.2603704594"><ele>82.33</ele><time>2013-09-18T10:41:32Z</time></trkpt><trkpt lat="51.7304286081" lon="-2.2603699565"><ele>73.20</ele><time>2013-09-18T10:41:33Z</time></trkpt><trkpt lat="51.7304147780" lon="-2.2603409551"><ele>76.56</ele><time>2013-09-18T10:41:37Z</time></trkpt><trkpt lat="51.7304107547" lon="-2.2603325732"><ele>76.08</ele><time>2013-09-18T10:41:38Z</time></trkpt><trkpt lat="51.7303948291" lon="-2.2603151388"><ele>75.60</ele><time>2013-09-18T10:41:40Z</time></trkpt><trkpt lat="51.7303400952" lon="-2.2601970378"><ele>74.16</ele><time>2013-09-18T10:41:49Z</time></trkpt><trkpt lat="51.7302388418" lon="-2.2600019071"><ele>76.56</ele><time>2013-09-18T10:42:02Z</time></trkpt><trkpt lat="51.7302332260" lon="-2.2599765100"><ele>75.12</ele><time>2013-09-18T10:42:04Z</time></trkpt><trkpt lat="51.7301936634" lon="-2.2598204389"><ele>75.12</ele><time>2013-09-18T10:42:15Z</time></trkpt><trkpt lat="51.7301219981" lon="-2.2596709896"><ele>75.12</ele><time>2013-09-18T10:42:26Z</time></trkpt><trkpt lat="51.7300707009" lon="-2.2595460154"><ele>75.60</ele><time>2013-09-18T10:42:35Z</time></trkpt><trkpt lat="51.7300459743" lon="-2.2594601847"><ele>75.60</ele><time>2013-09-18T10:42:41Z</time></trkpt><trkpt lat="51.7299852055" lon="-2.2593261581"><ele>75.60</ele><time>2013-09-18T10:42:50Z</time></trkpt><trkpt lat="51.7299593892" lon="-2.2592743579"><ele>77.04</ele><time>2013-09-18T10:42:54Z</time></trkpt><trkpt lat="51.7298276257" lon="-2.2590318695"><ele>77.52</ele><time>2013-09-18T10:43:15Z</time></trkpt><trkpt lat="51.7297194991" lon="-2.2587483935"><ele>78.97</ele><time>2013-09-18T10:43:36Z</time></trkpt><trkpt lat="51.7296043318" lon="-2.2584829386"><ele>78.97</ele><time>2013-09-18T10:43:58Z</time></trkpt><trkpt lat="51.7294611689" lon="-2.2581809387"><ele>79.93</ele><time>2013-09-18T10:44:20Z</time></trkpt><trkpt lat="51.7294410523" lon="-2.2581518535"><ele>80.41</ele><time>2013-09-18T10:44:23Z</time></trkpt><trkpt lat="51.7292957939" lon="-2.2579556331"><ele>81.37</ele><time>2013-09-18T10:44:41Z</time></trkpt><trkpt lat="51.7292212788" lon="-2.2576580755"><ele>82.81</ele><time>2013-09-18T10:45:00Z</time></trkpt><trkpt lat="51.7291341070" lon="-2.2573226318"><ele>84.25</ele><time>2013-09-18T10:45:20Z</time></trkpt><trkpt lat="51.7290743440" lon="-2.2570425086"><ele>86.18</ele><time>2013-09-18T10:45:39Z</time></trkpt><trkpt lat="51.7290365417" lon="-2.2566773091"><ele>89.54</ele><time>2013-09-18T10:45:59Z</time></trkpt><trkpt lat="51.7289535608" lon="-2.2563337348"><ele>91.46</ele><time>2013-09-18T10:46:19Z</time></trkpt><trkpt lat="51.7288747709" lon="-2.2560552880"><ele>95.79</ele><time>2013-09-18T10:46:37Z</time></trkpt><trkpt lat="51.7288372200" lon="-2.2559686191"><ele>95.31</ele><time>2013-09-18T10:46:45Z</time></trkpt><trkpt lat="51.7288313527" lon="-2.2558650188"><ele>96.27</ele><time>2013-09-18T10:47:03Z</time></trkpt><trkpt lat="51.7288166005" lon="-2.2558150627"><ele>97.71</ele><time>2013-09-18T10:47:11Z</time></trkpt><trkpt lat="51.7287980765" lon="-2.2557217721"><ele>97.71</ele><time>2013-09-18T10:47:16Z</time></trkpt><trkpt lat="51.7287464440" lon="-2.2556084488"><ele>98.67</ele><time>2013-09-18T10:47:33Z</time></trkpt><trkpt lat="51.7286855914" lon="-2.2554848995"><ele>99.15</ele><time>2013-09-18T10:47:44Z</time></trkpt><trkpt lat="51.7286130041" lon="-2.2553717438"><ele>101.08</ele><time>2013-09-18T10:48:02Z</time></trkpt><trkpt lat="51.7285964079" lon="-2.2553615179"><ele>100.60</ele><time>2013-09-18T10:48:21Z</time></trkpt><trkpt lat="51.7285898700" lon="-2.2554175090"><ele>100.60</ele><time>2013-09-18T10:48:40Z</time></trkpt><trkpt lat="51.7285191268" lon="-2.2554735001"><ele>100.60</ele><time>2013-09-18T10:48:53Z</time></trkpt><trkpt lat="51.7284132633" lon="-2.2556341812"><ele>100.11</ele><time>2013-09-18T10:49:11Z</time></trkpt><trkpt lat="51.7283658218" lon="-2.2557276394"><ele>99.63</ele><time>2013-09-18T10:49:24Z</time></trkpt><trkpt lat="51.7282282747" lon="-2.2559769172"><ele>98.67</ele><time>2013-09-18T10:49:43Z</time></trkpt><trkpt lat="51.7281485628" lon="-2.2561033163"><ele>98.19</ele><time>2013-09-18T10:50:02Z</time></trkpt><trkpt lat="51.7280379217" lon="-2.2562722955"><ele>97.23</ele><time>2013-09-18T10:50:18Z</time></trkpt><trkpt lat="51.7280308809" lon="-2.2562823538"><ele>97.71</ele><time>2013-09-18T10:50:19Z</time></trkpt><trkpt lat="51.7279463075" lon="-2.2564751375"><ele>97.23</ele><time>2013-09-18T10:50:38Z</time></trkpt><trkpt lat="51.7279126123" lon="-2.2566695139"><ele>96.75</ele><time>2013-09-18T10:50:57Z</time></trkpt><trkpt lat="51.7279059067" lon="-2.2566955816"><ele>96.75</ele><time>2013-09-18T10:51:13Z</time></trkpt><trkpt lat="51.7278868798" lon="-2.2567369044"><ele>96.75</ele><time>2013-09-18T10:51:28Z</time></trkpt><trkpt lat="51.7278519273" lon="-2.2567078192"><ele>96.27</ele><time>2013-09-18T10:51:32Z</time></trkpt><trkpt lat="51.7277201638" lon="-2.2569373995"><ele>96.75</ele><time>2013-09-18T10:51:49Z</time></trkpt><trkpt lat="51.7276140489" lon="-2.2571506351"><ele>95.79</ele><time>2013-09-18T10:52:06Z</time></trkpt><trkpt lat="51.7274673656" lon="-2.2572642099"><ele>94.83</ele><time>2013-09-18T10:52:21Z</time></trkpt><trkpt lat="51.7274342570" lon="-2.2574194428"><ele>93.87</ele><time>2013-09-18T10:52:37Z</time></trkpt><trkpt lat="51.7274297308" lon="-2.2574322671"><ele>94.83</ele><time>2013-09-18T10:52:38Z</time></trkpt><trkpt lat="51.7273143958" lon="-2.2576846462"><ele>92.90</ele><time>2013-09-18T10:52:59Z</time></trkpt><trkpt lat="51.7272063531" lon="-2.2579266317"><ele>91.94</ele><time>2013-09-18T10:53:14Z</time></trkpt><trkpt lat="51.7270936165" lon="-2.2581693716"><ele>89.54</ele><time>2013-09-18T10:53:31Z</time></trkpt><trkpt lat="51.7270257231" lon="-2.2583721299"><ele>88.10</ele><time>2013-09-18T10:53:46Z</time></trkpt><trkpt lat="51.7269656248" lon="-2.2585145384"><ele>86.66</ele><time>2013-09-18T10:53:57Z</time></trkpt><trkpt lat="51.7268677242" lon="-2.2586947493"><ele>85.21</ele><time>2013-09-18T10:54:14Z</time></trkpt><trkpt lat="51.7267571669" lon="-2.2587998584"><ele>82.33</ele><time>2013-09-18T10:54:29Z</time></trkpt><trkpt lat="51.7266111542" lon="-2.2589727771"><ele>80.89</ele><time>2013-09-18T10:54:48Z</time></trkpt><trkpt lat="51.7265609466" lon="-2.2591223940"><ele>79.45</ele><time>2013-09-18T10:54:57Z</time></trkpt><trkpt lat="51.7264426779" lon="-2.2593134176"><ele>78.48</ele><time>2013-09-18T10:55:15Z</time></trkpt><trkpt lat="51.7263308633" lon="-2.2595590074"><ele>77.04</ele><time>2013-09-18T10:55:34Z</time></trkpt><trkpt lat="51.7262598686" lon="-2.2597219516"><ele>76.56</ele><time>2013-09-18T10:55:50Z</time></trkpt><trkpt lat="51.7262476310" lon="-2.2597336024"><ele>76.08</ele><time>2013-09-18T10:55:52Z</time></trkpt><trkpt lat="51.7262148578" lon="-2.2597714886"><ele>75.60</ele><time>2013-09-18T10:55:57Z</time></trkpt><trkpt lat="51.7261532508" lon="-2.2598643601"><ele>75.60</ele><time>2013-09-18T10:56:12Z</time></trkpt><trkpt lat="51.7260947451" lon="-2.2599144839"><ele>75.60</ele><time>2013-09-18T10:56:26Z</time></trkpt><trkpt lat="51.7260006163" lon="-2.2602070123"><ele>75.60</ele><time>2013-09-18T10:56:45Z</time></trkpt><trkpt lat="51.7260023765" lon="-2.2603661008"><ele>75.60</ele><time>2013-09-18T10:56:53Z</time></trkpt><trkpt lat="51.7260209844" lon="-2.2606945876"><ele>76.08</ele><time>2013-09-18T10:57:12Z</time></trkpt><trkpt lat="51.7260582838" lon="-2.2608416062"><ele>76.08</ele><time>2013-09-18T10:57:21Z</time></trkpt><trkpt lat="51.7261164542" lon="-2.2610235773"><ele>76.08</ele><time>2013-09-18T10:57:39Z</time></trkpt><trkpt lat="51.7261405103" lon="-2.2611659020"><ele>76.56</ele><time>2013-09-18T10:57:53Z</time></trkpt><trkpt lat="51.7261958309" lon="-2.2612755373"><ele>77.04</ele><time>2013-09-18T10:58:03Z</time></trkpt><trkpt lat="51.7263266724" lon="-2.2614487074"><ele>77.04</ele><time>2013-09-18T10:58:19Z</time></trkpt><trkpt lat="51.7264555022" lon="-2.2616180219"><ele>77.52</ele><time>2013-09-18T10:58:36Z</time></trkpt><trkpt lat="51.7265410814" lon="-2.2616301756"><ele>77.04</ele><time>2013-09-18T10:58:50Z</time></trkpt><trkpt lat="51.7266321927" lon="-2.2617247235"><ele>77.04</ele><time>2013-09-18T10:59:06Z</time></trkpt><trkpt lat="51.7267236393" lon="-2.2618740052"><ele>77.52</ele><time>2013-09-18T10:59:19Z</time></trkpt><trkpt lat="51.7268385552" lon="-2.2620101273"><ele>78.00</ele><time>2013-09-18T10:59:32Z</time></trkpt><trkpt lat="51.7269641161" lon="-2.2621863987"><ele>78.48</ele><time>2013-09-18T10:59:49Z</time></trkpt><trkpt lat="51.7270737514" lon="-2.2622439824"><ele>78.48</ele><time>2013-09-18T11:00:04Z</time></trkpt><trkpt lat="51.7271756753" lon="-2.2623217665"><ele>78.00</ele><time>2013-09-18T11:00:19Z</time></trkpt><trkpt lat="51.7272460833" lon="-2.2624060046"><ele>77.52</ele><time>2013-09-18T11:00:33Z</time></trkpt><trkpt lat="51.7273081094" lon="-2.2624122072"><ele>78.00</ele><time>2013-09-18T11:00:53Z</time></trkpt><trkpt lat="51.7273438163" lon="-2.2624243610"><ele>77.52</ele><time>2013-09-18T11:00:58Z</time></trkpt><trkpt lat="51.7274213489" lon="-2.2624749877"><ele>74.64</ele><time>2013-09-18T11:01:05Z</time></trkpt><trkpt lat="51.7274290603" lon="-2.2624785919"><ele>76.56</ele><time>2013-09-18T11:01:06Z</time></trkpt><trkpt lat="51.7275296431" lon="-2.2625134606"><ele>74.16</ele><time>2013-09-18T11:01:15Z</time></trkpt><trkpt lat="51.7275697924" lon="-2.2625187412"><ele>76.56</ele><time>2013-09-18T11:01:18Z</time></trkpt><trkpt lat="51.7276362609" lon="-2.2625635006"><ele>73.20</ele><time>2013-09-18T11:01:24Z</time></trkpt><trkpt lat="51.7276720516" lon="-2.2626018897"><ele>75.12</ele><time>2013-09-18T11:01:27Z</time></trkpt><trkpt lat="51.7277938407" lon="-2.2626384348"><ele>73.20</ele><time>2013-09-18T11:01:37Z</time></trkpt><trkpt lat="51.7278137896" lon="-2.2626086790"><ele>72.24</ele><time>2013-09-18T11:01:39Z</time></trkpt><trkpt lat="51.7279067449" lon="-2.2625199985"><ele>71.76</ele><time>2013-09-18T11:01:52Z</time></trkpt><trkpt lat="51.7279059906" lon="-2.2625358403"><ele>72.24</ele><time>2013-09-18T11:02:07Z</time></trkpt><trkpt lat="51.7279144563" lon="-2.2625833657"><ele>70.31</ele><time>2013-09-18T11:02:10Z</time></trkpt><trkpt lat="51.7279166356" lon="-2.2625992075"><ele>74.64</ele><time>2013-09-18T11:02:11Z</time></trkpt><trkpt lat="51.7279191501" lon="-2.2626165580"><ele>72.72</ele><time>2013-09-18T11:02:12Z</time></trkpt><trkpt lat="51.7279265262" lon="-2.2626567911"><ele>70.79</ele><time>2013-09-18T11:02:14Z</time></trkpt><trkpt lat="51.7279426195" lon="-2.2627022211"><ele>73.20</ele><time>2013-09-18T11:02:16Z</time></trkpt><trkpt lat="51.7280033883" lon="-2.2627364192"><ele>72.72</ele><time>2013-09-18T11:02:28Z</time></trkpt><trkpt lat="51.7280253489" lon="-2.2627388500"><ele>72.72</ele><time>2013-09-18T11:02:33Z</time></trkpt><trkpt lat="51.7281986028" lon="-2.2628500778"><ele>74.64</ele><time>2013-09-18T11:02:48Z</time></trkpt><trkpt lat="51.7282666638" lon="-2.2628769837"><ele>74.64</ele><time>2013-09-18T11:03:02Z</time></trkpt><trkpt lat="51.7283209786" lon="-2.2629064042"><ele>75.12</ele><time>2013-09-18T11:03:20Z</time></trkpt><trkpt lat="51.7284367327" lon="-2.2629875410"><ele>74.64</ele><time>2013-09-18T11:03:35Z</time></trkpt><trkpt lat="51.7284828331" lon="-2.2630348150"><ele>75.12</ele><time>2013-09-18T11:03:40Z</time></trkpt><trkpt lat="51.7285376508" lon="-2.2630800772"><ele>74.16</ele><time>2013-09-18T11:03:46Z</time></trkpt><trkpt lat="51.7287142575" lon="-2.2631650697"><ele>72.24</ele><time>2013-09-18T11:04:03Z</time></trkpt><trkpt lat="51.7288904451" lon="-2.2632204741"><ele>71.27</ele><time>2013-09-18T11:04:20Z</time></trkpt><trkpt lat="51.7290398106" lon="-2.2633173689"><ele>69.35</ele><time>2013-09-18T11:04:35Z</time></trkpt><trkpt lat="51.7291892599" lon="-2.2634071391"><ele>68.87</ele><time>2013-09-18T11:04:51Z</time></trkpt><trkpt lat="51.7292669602" lon="-2.2634563409"><ele>67.91</ele><time>2013-09-18T11:05:00Z</time></trkpt><trkpt lat="51.7293129768" lon="-2.2634755354"><ele>68.39</ele><time>2013-09-18T11:05:04Z</time></trkpt><trkpt lat="51.7294131406" lon="-2.2635932174"><ele>66.47</ele><time>2013-09-18T11:05:17Z</time></trkpt><trkpt lat="51.7295279726" lon="-2.2637464385"><ele>65.99</ele><time>2013-09-18T11:05:33Z</time></trkpt><trkpt lat="51.7296382785" lon="-2.2639046889"><ele>64.55</ele><time>2013-09-18T11:05:49Z</time></trkpt><trkpt lat="51.7297211755" lon="-2.2639950458"><ele>63.58</ele><time>2013-09-18T11:06:04Z</time></trkpt><trkpt lat="51.7297548708" lon="-2.2640252206"><ele>63.10</ele><time>2013-09-18T11:06:13Z</time></trkpt><trkpt lat="51.7298445571" lon="-2.2641731612"><ele>61.66</ele><time>2013-09-18T11:06:26Z</time></trkpt><trkpt lat="51.7298857961" lon="-2.2642267216"><ele>62.62</ele><time>2013-09-18T11:06:30Z</time></trkpt><trkpt lat="51.7299779970" lon="-2.2643834632"><ele>61.18</ele><time>2013-09-18T11:06:41Z</time></trkpt><trkpt lat="51.7300510872" lon="-2.2645257879"><ele>60.22</ele><time>2013-09-18T11:06:51Z</time></trkpt><trkpt lat="51.7301076651" lon="-2.2646060865"><ele>59.26</ele><time>2013-09-18T11:06:57Z</time></trkpt><trkpt lat="51.7301971000" lon="-2.2648027260"><ele>59.26</ele><time>2013-09-18T11:07:11Z</time></trkpt><trkpt lat="51.7302319687" lon="-2.2648681048"><ele>55.89</ele><time>2013-09-18T11:07:18Z</time></trkpt><trkpt lat="51.7302375846" lon="-2.2648743074"><ele>61.66</ele><time>2013-09-18T11:07:19Z</time></trkpt><trkpt lat="51.7302430328" lon="-2.2648837790"><ele>57.34</ele><time>2013-09-18T11:07:20Z</time></trkpt><trkpt lat="51.7303116806" lon="-2.2650649957"><ele>57.34</ele><time>2013-09-18T11:07:33Z</time></trkpt><trkpt lat="51.7303514946" lon="-2.2651552688"><ele>56.37</ele><time>2013-09-18T11:07:40Z</time></trkpt><trkpt lat="51.7304308712" lon="-2.2653639782"><ele>55.89</ele><time>2013-09-18T11:07:56Z</time></trkpt><trkpt lat="51.7305079009" lon="-2.2654916346"><ele>55.41</ele><time>2013-09-18T11:08:13Z</time></trkpt><trkpt lat="51.7305313703" lon="-2.2655062191"><ele>54.93</ele><time>2013-09-18T11:08:16Z</time></trkpt><trkpt lat="51.7305641435" lon="-2.2655166127"><ele>54.93</ele><time>2013-09-18T11:08:19Z</time></trkpt><trkpt lat="51.7307041213" lon="-2.2655280121"><ele>55.41</ele><time>2013-09-18T11:08:35Z</time></trkpt><trkpt lat="51.7308301851" lon="-2.2655029502"><ele>54.45</ele><time>2013-09-18T11:08:48Z</time></trkpt><trkpt lat="51.7308958992" lon="-2.2655029502"><ele>54.45</ele><time>2013-09-18T11:09:01Z</time></trkpt><trkpt lat="51.7308881041" lon="-2.2655111644"><ele>53.97</ele><time>2013-09-18T11:09:19Z</time></trkpt><trkpt lat="51.7309887707" lon="-2.2655763756"><ele>53.49</ele><time>2013-09-18T11:09:34Z</time></trkpt><trkpt lat="51.7310474440" lon="-2.2656335402"><ele>53.49</ele><time>2013-09-18T11:09:43Z</time></trkpt><trkpt lat="51.7310746014" lon="-2.2656596918"><ele>53.49</ele><time>2013-09-18T11:09:46Z</time></trkpt><trkpt lat="51.7312449217" lon="-2.2658078838"><ele>53.01</ele><time>2013-09-18T11:10:06Z</time></trkpt><trkpt lat="51.7314211093" lon="-2.2659236379"><ele>52.05</ele><time>2013-09-18T11:10:25Z</time></trkpt><trkpt lat="51.7315786052" lon="-2.2659799643"><ele>51.57</ele><time>2013-09-18T11:10:41Z</time></trkpt><trkpt lat="51.7317203432" lon="-2.2659875080"><ele>50.13</ele><time>2013-09-18T11:10:55Z</time></trkpt><trkpt lat="51.7317858897" lon="-2.2660307586"><ele>50.13</ele><time>2013-09-18T11:11:09Z</time></trkpt><trkpt lat="51.7318114545" lon="-2.2660584189"><ele>49.16</ele><time>2013-09-18T11:11:26Z</time></trkpt><trkpt lat="51.7318394501" lon="-2.2661107220"><ele>49.65</ele><time>2013-09-18T11:11:41Z</time></trkpt><trkpt lat="51.7318916693" lon="-2.2661846504"><ele>49.65</ele><time>2013-09-18T11:11:54Z</time></trkpt><trkpt lat="51.7319107801" lon="-2.2662196029"><ele>50.13</ele><time>2013-09-18T11:12:11Z</time></trkpt><trkpt lat="51.7319138814" lon="-2.2662364505"><ele>49.65</ele><time>2013-09-18T11:12:13Z</time></trkpt><trkpt lat="51.7319756560" lon="-2.2663923539"><ele>49.65</ele><time>2013-09-18T11:12:25Z</time></trkpt><trkpt lat="51.7320287973" lon="-2.2666053381"><ele>47.24</ele><time>2013-09-18T11:12:38Z</time></trkpt><trkpt lat="51.7320499197" lon="-2.2667052504"><ele>48.68</ele><time>2013-09-18T11:12:44Z</time></trkpt><trkpt lat="51.7320662644" lon="-2.2668063361"><ele>48.20</ele><time>2013-09-18T11:12:50Z</time></trkpt><trkpt lat="51.7321274523" lon="-2.2670077533"><ele>47.72</ele><time>2013-09-18T11:13:05Z</time></trkpt><trkpt lat="51.7321786657" lon="-2.2672043089"><ele>47.24</ele><time>2013-09-18T11:13:18Z</time></trkpt><trkpt lat="51.7321833596" lon="-2.2672208212"><ele>47.24</ele><time>2013-09-18T11:13:19Z</time></trkpt><trkpt lat="51.7322028894" lon="-2.2672721185"><ele>46.28</ele><time>2013-09-18T11:13:23Z</time></trkpt><trkpt lat="51.7322240118" lon="-2.2673841845"><ele>46.28</ele><time>2013-09-18T11:13:30Z</time></trkpt><trkpt lat="51.7322634067" lon="-2.2674476355"><ele>46.28</ele><time>2013-09-18T11:13:35Z</time></trkpt><trkpt lat="51.7324047256" lon="-2.2675782256"><ele>45.80</ele><time>2013-09-18T11:13:49Z</time></trkpt><trkpt lat="51.7325066496" lon="-2.2676809877"><ele>44.84</ele><time>2013-09-18T11:14:02Z</time></trkpt><trkpt lat="51.7326161172" lon="-2.2678256594"><ele>44.84</ele><time>2013-09-18T11:14:15Z</time></trkpt><trkpt lat="51.7327055521" lon="-2.2679850832"><ele>44.36</ele><time>2013-09-18T11:14:31Z</time></trkpt><trkpt lat="51.7327370681" lon="-2.2680405714"><ele>42.44</ele><time>2013-09-18T11:14:46Z</time></trkpt><trkpt lat="51.7327814922" lon="-2.2680300940"><ele>43.88</ele><time>2013-09-18T11:14:57Z</time></trkpt><trkpt lat="51.7328305263" lon="-2.2680412419"><ele>43.88</ele><time>2013-09-18T11:15:02Z</time></trkpt><trkpt lat="51.7328412551" lon="-2.2681222949"><ele>43.88</ele><time>2013-09-18T11:15:06Z</time></trkpt><trkpt lat="51.7327577714" lon="-2.2681788728"><ele>42.92</ele><time>2013-09-18T11:15:23Z</time></trkpt><trkpt lat="51.7327386606" lon="-2.2681946307"><ele>44.84</ele><time>2013-09-18T11:15:32Z</time></trkpt><trkpt lat="51.7327331286" lon="-2.2682258952"><ele>39.07</ele><time>2013-09-18T11:15:38Z</time></trkpt><trkpt lat="51.7327336315" lon="-2.2682258952"><ele>44.36</ele><time>2013-09-18T11:15:39Z</time></trkpt><trkpt lat="51.7327245791" lon="-2.2683165036"><ele>42.92</ele><time>2013-09-18T11:15:44Z</time></trkpt><trkpt lat="51.7327155266" lon="-2.2683642805"><ele>43.40</ele><time>2013-09-18T11:15:47Z</time></trkpt><trkpt lat="51.7326667439" lon="-2.2684283182"><ele>40.03</ele><time>2013-09-18T11:15:52Z</time></trkpt><trkpt lat="51.7326554283" lon="-2.2684338503"><ele>44.36</ele><time>2013-09-18T11:15:53Z</time></trkpt><trkpt lat="51.7325813323" lon="-2.2684707306"><ele>43.40</ele><time>2013-09-18T11:16:03Z</time></trkpt><trkpt lat="51.7325488105" lon="-2.2685011569"><ele>42.92</ele><time>2013-09-18T11:16:06Z</time></trkpt><trkpt lat="51.7325111758" lon="-2.2685314156"><ele>43.40</ele><time>2013-09-18T11:16:10Z</time></trkpt><trkpt lat="51.7324578669" lon="-2.2686306573"><ele>44.36</ele><time>2013-09-18T11:16:19Z</time></trkpt><trkpt lat="51.7324198969" lon="-2.2688439768"><ele>44.36</ele><time>2013-09-18T11:16:30Z</time></trkpt><trkpt lat="51.7324115150" lon="-2.2688734811"><ele>44.84</ele><time>2013-09-18T11:16:32Z</time></trkpt><trkpt lat="51.7323978525" lon="-2.2690303065"><ele>45.32</ele><time>2013-09-18T11:16:40Z</time></trkpt><trkpt lat="51.7323884647" lon="-2.2691908199"><ele>45.80</ele><time>2013-09-18T11:16:48Z</time></trkpt><trkpt lat="51.7323892191" lon="-2.2692867089"><ele>45.80</ele><time>2013-09-18T11:16:53Z</time></trkpt><trkpt lat="51.7323917337" lon="-2.2695445362"><ele>46.76</ele><time>2013-09-18T11:17:06Z</time></trkpt><trkpt lat="51.7324014567" lon="-2.2696763836"><ele>47.24</ele><time>2013-09-18T11:17:13Z</time></trkpt><trkpt lat="51.7323813401" lon="-2.2698745318"><ele>46.76</ele><time>2013-09-18T11:17:25Z</time></trkpt><trkpt lat="51.7323800828" lon="-2.2698978335"><ele>47.24</ele><time>2013-09-18T11:17:27Z</time></trkpt><trkpt lat="51.7323772330" lon="-2.2700159345"><ele>47.24</ele><time>2013-09-18T11:17:34Z</time></trkpt><trkpt lat="51.7323805019" lon="-2.2702837363"><ele>47.24</ele><time>2013-09-18T11:17:51Z</time></trkpt><trkpt lat="51.7323920690" lon="-2.2703482769"><ele>47.24</ele><time>2013-09-18T11:18:07Z</time></trkpt><trkpt lat="51.7323931586" lon="-2.2703523003"><ele>46.28</ele><time>2013-09-18T11:18:25Z</time></trkpt><trkpt lat="51.7323914822" lon="-2.2703558207"><ele>41.95</ele><time>2013-09-18T11:18:34Z</time></trkpt><trkpt lat="51.7323915660" lon="-2.2703559045"><ele>48.20</ele><time>2013-09-18T11:18:35Z</time></trkpt><trkpt lat="51.7323918175" lon="-2.2703578323"><ele>46.76</ele><time>2013-09-18T11:18:37Z</time></trkpt><trkpt lat="51.7323720362" lon="-2.2705221176"><ele>47.24</ele><time>2013-09-18T11:18:45Z</time></trkpt><trkpt lat="51.7323419452" lon="-2.2706624307"><ele>46.76</ele><time>2013-09-18T11:18:54Z</time></trkpt><trkpt lat="51.7323300429" lon="-2.2706932761"><ele>47.24</ele><time>2013-09-18T11:18:56Z</time></trkpt><trkpt lat="51.7323125247" lon="-2.2707509436"><ele>46.28</ele><time>2013-09-18T11:19:00Z</time></trkpt><trkpt lat="51.7323012091" lon="-2.2707838845"><ele>46.28</ele><time>2013-09-18T11:19:02Z</time></trkpt><trkpt lat="51.7322344892" lon="-2.2709362675"><ele>45.32</ele><time>2013-09-18T11:19:14Z</time></trkpt><trkpt lat="51.7322307173" lon="-2.2709495109"><ele>45.32</ele><time>2013-09-18T11:19:15Z</time></trkpt><trkpt lat="51.7322208267" lon="-2.2709866427"><ele>44.84</ele><time>2013-09-18T11:19:18Z</time></trkpt><trkpt lat="51.7321253568" lon="-2.2710838728"><ele>42.92</ele><time>2013-09-18T11:19:33Z</time></trkpt><trkpt lat="51.7320763227" lon="-2.2711086832"><ele>41.47</ele><time>2013-09-18T11:19:40Z</time></trkpt><trkpt lat="51.7320401967" lon="-2.2710927576"><ele>41.95</ele><time>2013-09-18T11:19:53Z</time></trkpt><trkpt lat="51.7320401967" lon="-2.2710936796"><ele>41.95</ele><time>2013-09-18T11:19:55Z</time></trkpt><trkpt lat="51.7319713812" lon="-2.2712180670"><ele>40.03</ele><time>2013-09-18T11:20:09Z</time></trkpt><trkpt lat="51.7319097742" lon="-2.2713419516"><ele>39.07</ele><time>2013-09-18T11:20:22Z</time></trkpt><trkpt lat="51.7318350915" lon="-2.2713921592"><ele>38.11</ele><time>2013-09-18T11:20:33Z</time></trkpt><trkpt lat="51.7317723949" lon="-2.2714924905"><ele>38.11</ele><time>2013-09-18T11:20:48Z</time></trkpt><trkpt lat="51.7316786014" lon="-2.2715081647"><ele>38.11</ele><time>2013-09-18T11:21:02Z</time></trkpt><trkpt lat="51.7315815389" lon="-2.2715148702"><ele>37.63</ele><time>2013-09-18T11:21:12Z</time></trkpt><trkpt lat="51.7315104604" lon="-2.2715951689"><ele>37.63</ele><time>2013-09-18T11:21:25Z</time></trkpt><trkpt lat="51.7314675450" lon="-2.2716789041"><ele>37.63</ele><time>2013-09-18T11:21:37Z</time></trkpt><trkpt lat="51.7314510327" lon="-2.2717629746"><ele>38.11</ele><time>2013-09-18T11:21:42Z</time></trkpt><trkpt lat="51.7314232048" lon="-2.2719161958"><ele>40.51</ele><time>2013-09-18T11:21:56Z</time></trkpt><trkpt lat="51.7313554790" lon="-2.2721119970"><ele>41.95</ele><time>2013-09-18T11:22:11Z</time></trkpt><trkpt lat="51.7313363682" lon="-2.2722412460"><ele>43.88</ele><time>2013-09-18T11:22:20Z</time></trkpt><trkpt lat="51.7313349433" lon="-2.2723028529"><ele>44.36</ele><time>2013-09-18T11:22:24Z</time></trkpt><trkpt lat="51.7313295789" lon="-2.2723570000"><ele>44.36</ele><time>2013-09-18T11:22:28Z</time></trkpt><trkpt lat="51.7312823888" lon="-2.2725685593"><ele>45.80</ele><time>2013-09-18T11:22:42Z</time></trkpt><trkpt lat="51.7312455922" lon="-2.2727470100"><ele>45.80</ele><time>2013-09-18T11:22:54Z</time></trkpt><trkpt lat="51.7312326841" lon="-2.2728838865"><ele>46.76</ele><time>2013-09-18T11:23:04Z</time></trkpt><trkpt lat="51.7312176805" lon="-2.2730008978"><ele>46.76</ele><time>2013-09-18T11:23:16Z</time></trkpt><trkpt lat="51.7311984859" lon="-2.2731055040"><ele>47.24</ele><time>2013-09-18T11:23:23Z</time></trkpt><trkpt lat="51.7311668023" lon="-2.2732922528"><ele>46.76</ele><time>2013-09-18T11:23:35Z</time></trkpt><trkpt lat="51.7311533913" lon="-2.2733988706"><ele>45.80</ele><time>2013-09-18T11:23:42Z</time></trkpt><trkpt lat="51.7311297543" lon="-2.2735673469"><ele>46.28</ele><time>2013-09-18T11:23:53Z</time></trkpt><trkpt lat="51.7310967296" lon="-2.2737895511"><ele>46.76</ele><time>2013-09-18T11:24:07Z</time></trkpt><trkpt lat="51.7311108951" lon="-2.2739064787"><ele>46.28</ele><time>2013-09-18T11:24:15Z</time></trkpt><trkpt lat="51.7310939636" lon="-2.2740670759"><ele>47.24</ele><time>2013-09-18T11:24:27Z</time></trkpt><trkpt lat="51.7310088035" lon="-2.2740473785"><ele>47.24</ele><time>2013-09-18T11:24:38Z</time></trkpt><trkpt lat="51.7309278343" lon="-2.2740298603"><ele>47.24</ele><time>2013-09-18T11:24:46Z</time></trkpt><trkpt lat="51.7308370583" lon="-2.2739820834"><ele>47.24</ele><time>2013-09-18T11:24:58Z</time></trkpt><trkpt lat="51.7307802290" lon="-2.2739735339"><ele>46.76</ele><time>2013-09-18T11:25:03Z</time></trkpt><trkpt lat="51.7306410894" lon="-2.2739763837"><ele>48.68</ele><time>2013-09-18T11:25:17Z</time></trkpt><trkpt lat="51.7305559292" lon="-2.2739681695"><ele>48.20</ele><time>2013-09-18T11:25:26Z</time></trkpt><trkpt lat="51.7303739581" lon="-2.2739408445"><ele>49.16</ele><time>2013-09-18T11:25:42Z</time></trkpt><trkpt lat="51.7302307952" lon="-2.2739209794"><ele>49.65</ele><time>2013-09-18T11:25:57Z</time></trkpt><trkpt lat="51.7302050628" lon="-2.2739042994"><ele>49.65</ele><time>2013-09-18T11:26:00Z</time></trkpt><trkpt lat="51.7301424500" lon="-2.2738825064"><ele>49.65</ele><time>2013-09-18T11:26:06Z</time></trkpt><trkpt lat="51.7300842796" lon="-2.2738226596"><ele>48.20</ele><time>2013-09-18T11:26:13Z</time></trkpt><trkpt lat="51.7300695274" lon="-2.2737802472"><ele>49.16</ele><time>2013-09-18T11:26:17Z</time></trkpt><trkpt lat="51.7300156318" lon="-2.2736969311"><ele>49.65</ele><time>2013-09-18T11:26:29Z</time></trkpt><trkpt lat="51.7299840320" lon="-2.2736778203"><ele>50.13</ele><time>2013-09-18T11:26:33Z</time></trkpt><trkpt lat="51.7298576329" lon="-2.2735948395"><ele>49.16</ele><time>2013-09-18T11:26:46Z</time></trkpt><trkpt lat="51.7298484966" lon="-2.2735905647"><ele>50.13</ele><time>2013-09-18T11:26:47Z</time></trkpt><trkpt lat="51.7298049945" lon="-2.2736100946"><ele>53.01</ele><time>2013-09-18T11:26:51Z</time></trkpt><trkpt lat="51.7296987958" lon="-2.2736606374"><ele>50.61</ele><time>2013-09-18T11:27:05Z</time></trkpt><trkpt lat="51.7296853010" lon="-2.2736572009"><ele>50.61</ele><time>2013-09-18T11:27:20Z</time></trkpt></trkseg></trk></gpx>